Home > Products > Valid Products > TAF

000
FTUS45 KBOU 251425 AAA
TAFDEN
TAF AMD
KDEN 251425Z 2514/2618 21012KT P6SM FEW080 FEW130 SCT200
     FM251600 27006KT P6SM FEW080 FEW130 SCT200
     FM251900 05006KT P6SM FEW080 SCT140
     FM252100 33012KT P6SM VCTS SCT080CB BKN140
      TEMPO 2521/2601 VRB20G30KT -TSRA BKN060CB
     FM260100 10012KT P6SM VCSH SCT060 BKN100
     FM261000 11010KT 1/2SM -DZ FG SCT002 OVC006
      TEMPO 2611/2615 1/4SM -DZ FG VV003
     FM261600 11010KT 2SM -SHRA BR SCT005 OVC010=



000
FTUS45 KBOU 251425 AAA
TAFDEN
TAF AMD
KDEN 251425Z 2514/2618 21012KT P6SM FEW080 FEW130 SCT200
     FM251600 27006KT P6SM FEW080 FEW130 SCT200
     FM251900 05006KT P6SM FEW080 SCT140
     FM252100 33012KT P6SM VCTS SCT080CB BKN140
      TEMPO 2521/2601 VRB20G30KT -TSRA BKN060CB
     FM260100 10012KT P6SM VCSH SCT060 BKN100
     FM261000 11010KT 1/2SM -DZ FG SCT002 OVC006
      TEMPO 2611/2615 1/4SM -DZ FG VV003
     FM261600 11010KT 2SM -SHRA BR SCT005 OVC010=



000
FTUS45 KBOU 251128
TAFBJC
TAF
KBJC 251128Z 2512/2612 28009KT P6SM FEW200
     FM251500 VRB05KT P6SM FEW120 SCT200
     FM252100 27012KT P6SM VCTS SCT080CB BKN140
      TEMPO 2521/2601 VRB20G30KT -TSRA BKN080CB
     FM260100 13009KT P6SM SCT060 BKN100
     FM260900 06009KT 1SM -DZ BR SCT004 OVC008=



000
FTUS45 KBOU 251128
TAFBJC
TAF
KBJC 251128Z 2512/2612 28009KT P6SM FEW200
     FM251500 VRB05KT P6SM FEW120 SCT200
     FM252100 27012KT P6SM VCTS SCT080CB BKN140
      TEMPO 2521/2601 VRB20G30KT -TSRA BKN080CB
     FM260100 13009KT P6SM SCT060 BKN100
     FM260900 06009KT 1SM -DZ BR SCT004 OVC008=



000
FTUS45 KBOU 251128
TAFAPA
TAF
KAPA 251128Z 2512/2612 19006KT P6SM FEW200
     FM251400 VRB06KT P6SM SCT200
     FM251900 05010KT P6SM FEW080 BKN140
     FM252100 30011KT P6SM VCTS SCT080CB BKN140
      TEMPO 2521/2601 VRB20G30KT -TSRA BKN060CB
     FM260100 13009KT P6SM SCT060 BKN100
     FM260900 06009KT 1SM -DZ BR SCT004 OVC008=



000
FTUS45 KBOU 251128
TAFBJC
TAF
KBJC 251128Z 2512/2612 28009KT P6SM FEW200
     FM251500 VRB05KT P6SM FEW120 SCT200
     FM252100 27012KT P6SM VCTS SCT080CB BKN140
      TEMPO 2521/2601 VRB20G30KT -TSRA BKN080CB
     FM260100 13009KT P6SM SCT060 BKN100
     FM260900 06009KT 1SM -DZ BR SCT004 OVC008=



000
FTUS45 KBOU 251128
TAFAPA
TAF
KAPA 251128Z 2512/2612 19006KT P6SM FEW200
     FM251400 VRB06KT P6SM SCT200
     FM251900 05010KT P6SM FEW080 BKN140
     FM252100 30011KT P6SM VCTS SCT080CB BKN140
      TEMPO 2521/2601 VRB20G30KT -TSRA BKN060CB
     FM260100 13009KT P6SM SCT060 BKN100
     FM260900 06009KT 1SM -DZ BR SCT004 OVC008=



000
FTUS45 KBOU 251128
TAFDEN
TAF
KDEN 251128Z 2512/2618 21012KT P6SM FEW200
     FM251400 24008KT P6SM FEW200
     FM251800 05006KT P6SM FEW080 SCT140
     FM252100 33012KT P6SM VCTS SCT080CB BKN140
      TEMPO 2521/2601 VRB20G30KT -TSRA BKN060CB
     FM260100 10012KT P6SM SCT060 BKN100
     FM260900 11010KT 1/2SM -DZ FG SCT002 OVC006
      TEMPO 2611/2615 1/4SM -DZ FG VV003
     FM261600 11010KT 2SM -DZ BR SCT005 OVC010=



000
FTUS45 KBOU 251128
TAFDEN
TAF
KDEN 251128Z 2512/2618 21012KT P6SM FEW200
     FM251400 24008KT P6SM FEW200
     FM251800 05006KT P6SM FEW080 SCT140
     FM252100 33012KT P6SM VCTS SCT080CB BKN140
      TEMPO 2521/2601 VRB20G30KT -TSRA BKN060CB
     FM260100 10012KT P6SM SCT060 BKN100
     FM260900 11010KT 1/2SM -DZ FG SCT002 OVC006
      TEMPO 2611/2615 1/4SM -DZ FG VV003
     FM261600 11010KT 2SM -DZ BR SCT005 OVC010=



000
FTUS45 KBOU 251128
TAFBJC
TAF
KBJC 251128Z 2512/2612 28009KT P6SM FEW200
     FM251500 VRB05KT P6SM FEW120 SCT200
     FM252100 27012KT P6SM VCTS SCT080CB BKN140
      TEMPO 2521/2601 VRB20G30KT -TSRA BKN080CB
     FM260100 13009KT P6SM SCT060 BKN100
     FM260900 06009KT 1SM -DZ BR SCT004 OVC008=



000
FTUS45 KBOU 251128
TAFAPA
TAF
KAPA 251128Z 2512/2612 19006KT P6SM FEW200
     FM251400 VRB06KT P6SM SCT200
     FM251900 05010KT P6SM FEW080 BKN140
     FM252100 30011KT P6SM VCTS SCT080CB BKN140
      TEMPO 2521/2601 VRB20G30KT -TSRA BKN060CB
     FM260100 13009KT P6SM SCT060 BKN100
     FM260900 06009KT 1SM -DZ BR SCT004 OVC008=



000
FTUS45 KBOU 251128
TAFDEN
TAF
KDEN 251128Z 2512/2618 21012KT P6SM FEW200
     FM251400 24008KT P6SM FEW200
     FM251800 05006KT P6SM FEW080 SCT140
     FM252100 33012KT P6SM VCTS SCT080CB BKN140
      TEMPO 2521/2601 VRB20G30KT -TSRA BKN060CB
     FM260100 10012KT P6SM SCT060 BKN100
     FM260900 11010KT 1/2SM -DZ FG SCT002 OVC006
      TEMPO 2611/2615 1/4SM -DZ FG VV003
     FM261600 11010KT 2SM -DZ BR SCT005 OVC010=



000
FTUS45 KBOU 251128
TAFDEN
TAF
KDEN 251128Z 2512/2618 21012KT P6SM FEW200
     FM251400 24008KT P6SM FEW200
     FM251800 05006KT P6SM FEW080 SCT140
     FM252100 33012KT P6SM VCTS SCT080CB BKN140
      TEMPO 2521/2601 VRB20G30KT -TSRA BKN060CB
     FM260100 10012KT P6SM SCT060 BKN100
     FM260900 11010KT 1/2SM -DZ FG SCT002 OVC006
      TEMPO 2611/2615 1/4SM -DZ FG VV003
     FM261600 11010KT 2SM -DZ BR SCT005 OVC010=



000
FTUS45 KBOU 251128
TAFAPA
TAF
KAPA 251128Z 2512/2612 19006KT P6SM FEW200
     FM251400 VRB06KT P6SM SCT200
     FM251900 05010KT P6SM FEW080 BKN140
     FM252100 30011KT P6SM VCTS SCT080CB BKN140
      TEMPO 2521/2601 VRB20G30KT -TSRA BKN060CB
     FM260100 13009KT P6SM SCT060 BKN100
     FM260900 06009KT 1SM -DZ BR SCT004 OVC008=



000
FTUS45 KBOU 250900 AAA
TAFDEN
TAF AMD
KDEN 250900Z 2509/2612 21009KT P6SM FEW150
     FM251400 15006KT P6SM SCT200
     FM251900 15012KT P6SM FEW080 BKN140
     FM252100 34015KT P6SM VCTS SCT080CB BKN140
      TEMPO 2521/2601 VRB20G30KT -TSRA BKN080CB
     FM260200 32012KT P6SM SCT060 BKN120
      TEMPO 2602/2606 -SHRA BKN060
     FM260900 03008KT 1/2SM FG SCT002 OVC006=



000
FTUS45 KBOU 250900 AAA
TAFDEN
TAF AMD
KDEN 250900Z 2509/2612 21009KT P6SM FEW150
     FM251400 15006KT P6SM SCT200
     FM251900 15012KT P6SM FEW080 BKN140
     FM252100 34015KT P6SM VCTS SCT080CB BKN140
      TEMPO 2521/2601 VRB20G30KT -TSRA BKN080CB
     FM260200 32012KT P6SM SCT060 BKN120
      TEMPO 2602/2606 -SHRA BKN060
     FM260900 03008KT 1/2SM FG SCT002 OVC006=



000
FTUS45 KBOU 250729 AAA
TAFBJC
TAF AMD
KBJC 250729Z 2507/2606 28009KT P6SM FEW100 SCT200
     FM251500 VRB05KT P6SM FEW120 SCT200
     FM252100 27012KT P6SM VCTS SCT080CB BKN140
      TEMPO 2521/2601 VRB20G30KT -TSRA BKN080CB
     FM260100 30010KT P6SM SCT060 BKN120
      TEMPO 2601/2605 -SHRA BKN060=



000
FTUS45 KBOU 250729 AAA
TAFBJC
TAF AMD
KBJC 250729Z 2507/2606 28009KT P6SM FEW100 SCT200
     FM251500 VRB05KT P6SM FEW120 SCT200
     FM252100 27012KT P6SM VCTS SCT080CB BKN140
      TEMPO 2521/2601 VRB20G30KT -TSRA BKN080CB
     FM260100 30010KT P6SM SCT060 BKN120
      TEMPO 2601/2605 -SHRA BKN060=



000
FTUS45 KBOU 250729 AAA
TAFBJC
TAF AMD
KBJC 250729Z 2507/2606 28009KT P6SM FEW100 SCT200
     FM251500 VRB05KT P6SM FEW120 SCT200
     FM252100 27012KT P6SM VCTS SCT080CB BKN140
      TEMPO 2521/2601 VRB20G30KT -TSRA BKN080CB
     FM260100 30010KT P6SM SCT060 BKN120
      TEMPO 2601/2605 -SHRA BKN060=



000
FTUS45 KBOU 250729 AAA
TAFBJC
TAF AMD
KBJC 250729Z 2507/2606 28009KT P6SM FEW100 SCT200
     FM251500 VRB05KT P6SM FEW120 SCT200
     FM252100 27012KT P6SM VCTS SCT080CB BKN140
      TEMPO 2521/2601 VRB20G30KT -TSRA BKN080CB
     FM260100 30010KT P6SM SCT060 BKN120
      TEMPO 2601/2605 -SHRA BKN060=



000
FTUS45 KBOU 250538
TAFBJC
TAF
KBJC 250538Z 2506/2606 28012KT P6SM FEW100 SCT200
     FM251500 VRB05KT P6SM FEW120 SCT200
     FM252100 27012KT P6SM VCTS SCT080CB BKN140
      TEMPO 2521/2601 VRB20G30KT -TSRA BKN080CB
     FM260100 30010KT P6SM SCT060 BKN120
      TEMPO 2601/2605 -SHRA BKN060=



000
FTUS45 KBOU 250538
TAFDEN
TAF
KDEN 250538Z 2506/2612 22009KT P6SM FEW110 SCT200
     FM251400 15006KT P6SM SCT200
     FM251900 15012KT P6SM FEW080 BKN140
     FM252100 34015KT P6SM VCTS SCT080CB BKN140
      TEMPO 2521/2601 VRB20G30KT -TSRA BKN080CB
     FM260200 32012KT P6SM SCT060 BKN120
      TEMPO 2602/2606 -SHRA BKN060
     FM260900 03008KT 1/2SM FG SCT002 OVC006=



000
FTUS45 KBOU 250538
TAFAPA
TAF
KAPA 250538Z 2506/2606 22006KT P6SM FEW100 SCT200
     FM251400 15006KT P6SM SCT200
     FM251900 15012KT P6SM FEW080 BKN140
     FM252100 35015KT P6SM VCTS SCT080CB BKN140
      TEMPO 2521/2601 VRB20G30KT -TSRA BKN080CB
     FM260100 32012KT P6SM SCT060 BKN120
      TEMPO 2601/2605 -SHRA BKN060=



000
FTUS45 KBOU 250538
TAFDEN
TAF
KDEN 250538Z 2506/2612 22009KT P6SM FEW110 SCT200
     FM251400 15006KT P6SM SCT200
     FM251900 15012KT P6SM FEW080 BKN140
     FM252100 34015KT P6SM VCTS SCT080CB BKN140
      TEMPO 2521/2601 VRB20G30KT -TSRA BKN080CB
     FM260200 32012KT P6SM SCT060 BKN120
      TEMPO 2602/2606 -SHRA BKN060
     FM260900 03008KT 1/2SM FG SCT002 OVC006=



000
FTUS45 KBOU 250538
TAFBJC
TAF
KBJC 250538Z 2506/2606 28012KT P6SM FEW100 SCT200
     FM251500 VRB05KT P6SM FEW120 SCT200
     FM252100 27012KT P6SM VCTS SCT080CB BKN140
      TEMPO 2521/2601 VRB20G30KT -TSRA BKN080CB
     FM260100 30010KT P6SM SCT060 BKN120
      TEMPO 2601/2605 -SHRA BKN060=



000
FTUS45 KBOU 250538
TAFAPA
TAF
KAPA 250538Z 2506/2606 22006KT P6SM FEW100 SCT200
     FM251400 15006KT P6SM SCT200
     FM251900 15012KT P6SM FEW080 BKN140
     FM252100 35015KT P6SM VCTS SCT080CB BKN140
      TEMPO 2521/2601 VRB20G30KT -TSRA BKN080CB
     FM260100 32012KT P6SM SCT060 BKN120
      TEMPO 2601/2605 -SHRA BKN060=



000
FTUS45 KBOU 250248 AAA
TAFBJC
TAF AMD
KBJC 250248Z 2503/2524 28010KT P6SM SCT080 SCT120 BKN200
     FM250600 28015KT P6SM FEW100 SCT200
     FM251800 15006KT P6SM SCT080 SCT140 BKN200
     FM252100 15012KT P6SM VCTS SCT080CB BKN140
      TEMPO 2522/2524 VRB20G30KT -TSRA BKN080CB=



000
FTUS45 KBOU 250248 AAB
TAFDEN
TAF AMD
KDEN 250248Z 2503/2606 23010KT P6SM SCT090 SCT140 BKN200
     FM250600 23008KT P6SM FEW110 SCT200
     FM251400 15006KT P6SM SCT200
     FM252000 15012KT P6SM FEW080 BKN140
     FM252200 15015KT P6SM VCTS SCT080CB BKN140
      TEMPO 2523/2602 VRB20G30KT -TSRA BKN080CB
     FM260200 32012KT P6SM SCT060 BKN120
      TEMPO 2602/2606 -SHRA BKN060=



000
FTUS45 KBOU 250248 AAB
TAFDEN
TAF AMD
KDEN 250248Z 2503/2606 23010KT P6SM SCT090 SCT140 BKN200
     FM250600 23008KT P6SM FEW110 SCT200
     FM251400 15006KT P6SM SCT200
     FM252000 15012KT P6SM FEW080 BKN140
     FM252200 15015KT P6SM VCTS SCT080CB BKN140
      TEMPO 2523/2602 VRB20G30KT -TSRA BKN080CB
     FM260200 32012KT P6SM SCT060 BKN120
      TEMPO 2602/2606 -SHRA BKN060=



000
FTUS45 KBOU 250248 AAA
TAFBJC
TAF AMD
KBJC 250248Z 2503/2524 28010KT P6SM SCT080 SCT120 BKN200
     FM250600 28015KT P6SM FEW100 SCT200
     FM251800 15006KT P6SM SCT080 SCT140 BKN200
     FM252100 15012KT P6SM VCTS SCT080CB BKN140
      TEMPO 2522/2524 VRB20G30KT -TSRA BKN080CB=



000
FTUS45 KBOU 242359 AAA
TAFDEN
TAF AMD
KDEN 242359Z 2500/2606 30015KT P6SM VCSH SCT070 BKN120
      TEMPO 2500/2501 30015G25KT
     FM250200 26010KT P6SM SCT100 BKN200
     FM250500 23008KT P6SM SCT200
     FM251400 15006KT P6SM SCT200
     FM252000 15012KT P6SM FEW080 BKN140
     FM252200 15015KT P6SM VCTS SCT080CB BKN140
      TEMPO 2523/2602 VRB20G30KT -TSRA BKN080CB
     FM260200 32012KT P6SM SCT060 BKN120
      TEMPO 2602/2606 -SHRA BKN060=



000
FTUS45 KBOU 242359 AAA
TAFDEN
TAF AMD
KDEN 242359Z 2500/2606 30015KT P6SM VCSH SCT070 BKN120
      TEMPO 2500/2501 30015G25KT
     FM250200 26010KT P6SM SCT100 BKN200
     FM250500 23008KT P6SM SCT200
     FM251400 15006KT P6SM SCT200
     FM252000 15012KT P6SM FEW080 BKN140
     FM252200 15015KT P6SM VCTS SCT080CB BKN140
      TEMPO 2523/2602 VRB20G30KT -TSRA BKN080CB
     FM260200 32012KT P6SM SCT060 BKN120
      TEMPO 2602/2606 -SHRA BKN060=



000
FTUS45 KBOU 242359 AAA
TAFDEN
TAF AMD
KDEN 242359Z 2500/2606 30015KT P6SM VCSH SCT070 BKN120
      TEMPO 2500/2501 30015G25KT
     FM250200 26010KT P6SM SCT100 BKN200
     FM250500 23008KT P6SM SCT200
     FM251400 15006KT P6SM SCT200
     FM252000 15012KT P6SM FEW080 BKN140
     FM252200 15015KT P6SM VCTS SCT080CB BKN140
      TEMPO 2523/2602 VRB20G30KT -TSRA BKN080CB
     FM260200 32012KT P6SM SCT060 BKN120
      TEMPO 2602/2606 -SHRA BKN060=



000
FTUS45 KBOU 242359 AAA
TAFDEN
TAF AMD
KDEN 242359Z 2500/2606 30015KT P6SM VCSH SCT070 BKN120
      TEMPO 2500/2501 30015G25KT
     FM250200 26010KT P6SM SCT100 BKN200
     FM250500 23008KT P6SM SCT200
     FM251400 15006KT P6SM SCT200
     FM252000 15012KT P6SM FEW080 BKN140
     FM252200 15015KT P6SM VCTS SCT080CB BKN140
      TEMPO 2523/2602 VRB20G30KT -TSRA BKN080CB
     FM260200 32012KT P6SM SCT060 BKN120
      TEMPO 2602/2606 -SHRA BKN060=



000
FTUS45 KBOU 242321
TAFAPA
TAF
KAPA 242321Z 2500/2524 29014KT P6SM VCSH SCT070 BKN120
      TEMPO 2500/2501 29014G24KT -SHRA BKN070
     FM250200 29010KT P6SM SCT120 BKN200
     FM250500 23008KT P6SM SCT200
     FM251400 15006KT P6SM SCT200
     FM252000 15012KT P6SM FEW080 BKN140
     FM252200 15015KT P6SM VCTS SCT080CB BKN140
      TEMPO 2522/2524 VRB20G30KT -TSRA BKN080CB=



000
FTUS45 KBOU 242321
TAFBJC
TAF
KBJC 242321Z 2500/2524 22008KT P6SM VCSH SCT090 BKN140
      TEMPO 2500/2501 VRB20G30KT
     FM250100 28015KT P6SM SCT140 BKN200
     FM250500 28015KT P6SM FEW140 SCT200
      TEMPO 2506/2510 28015G25KT
     FM251800 15006KT P6SM SCT080 SCT140 BKN200
     FM252100 15012KT P6SM VCTS SCT080CB BKN140
      TEMPO 2522/2524 VRB20G30KT -TSRA BKN080CB=



000
FTUS45 KBOU 242321
TAFBJC
TAF
KBJC 242321Z 2500/2524 22008KT P6SM VCSH SCT090 BKN140
      TEMPO 2500/2501 VRB20G30KT
     FM250100 28015KT P6SM SCT140 BKN200
     FM250500 28015KT P6SM FEW140 SCT200
      TEMPO 2506/2510 28015G25KT
     FM251800 15006KT P6SM SCT080 SCT140 BKN200
     FM252100 15012KT P6SM VCTS SCT080CB BKN140
      TEMPO 2522/2524 VRB20G30KT -TSRA BKN080CB=



000
FTUS45 KBOU 242321
TAFAPA
TAF
KAPA 242321Z 2500/2524 29014KT P6SM VCSH SCT070 BKN120
      TEMPO 2500/2501 29014G24KT -SHRA BKN070
     FM250200 29010KT P6SM SCT120 BKN200
     FM250500 23008KT P6SM SCT200
     FM251400 15006KT P6SM SCT200
     FM252000 15012KT P6SM FEW080 BKN140
     FM252200 15015KT P6SM VCTS SCT080CB BKN140
      TEMPO 2522/2524 VRB20G30KT -TSRA BKN080CB=



000
FTUS45 KBOU 242321
TAFBJC
TAF
KBJC 242321Z 2500/2524 22008KT P6SM VCSH SCT090 BKN140
      TEMPO 2500/2501 VRB20G30KT
     FM250100 28015KT P6SM SCT140 BKN200
     FM250500 28015KT P6SM FEW140 SCT200
      TEMPO 2506/2510 28015G25KT
     FM251800 15006KT P6SM SCT080 SCT140 BKN200
     FM252100 15012KT P6SM VCTS SCT080CB BKN140
      TEMPO 2522/2524 VRB20G30KT -TSRA BKN080CB=



000
FTUS45 KBOU 242321
TAFBJC
TAF
KBJC 242321Z 2500/2524 22008KT P6SM VCSH SCT090 BKN140
      TEMPO 2500/2501 VRB20G30KT
     FM250100 28015KT P6SM SCT140 BKN200
     FM250500 28015KT P6SM FEW140 SCT200
      TEMPO 2506/2510 28015G25KT
     FM251800 15006KT P6SM SCT080 SCT140 BKN200
     FM252100 15012KT P6SM VCTS SCT080CB BKN140
      TEMPO 2522/2524 VRB20G30KT -TSRA BKN080CB=



000
FTUS45 KBOU 242321
TAFAPA
TAF
KAPA 242321Z 2500/2524 29014KT P6SM VCSH SCT070 BKN120
      TEMPO 2500/2501 29014G24KT -SHRA BKN070
     FM250200 29010KT P6SM SCT120 BKN200
     FM250500 23008KT P6SM SCT200
     FM251400 15006KT P6SM SCT200
     FM252000 15012KT P6SM FEW080 BKN140
     FM252200 15015KT P6SM VCTS SCT080CB BKN140
      TEMPO 2522/2524 VRB20G30KT -TSRA BKN080CB=



000
FTUS45 KBOU 242321
TAFAPA
TAF
KAPA 242321Z 2500/2524 29014KT P6SM VCSH SCT070 BKN120
      TEMPO 2500/2501 29014G24KT -SHRA BKN070
     FM250200 29010KT P6SM SCT120 BKN200
     FM250500 23008KT P6SM SCT200
     FM251400 15006KT P6SM SCT200
     FM252000 15012KT P6SM FEW080 BKN140
     FM252200 15015KT P6SM VCTS SCT080CB BKN140
      TEMPO 2522/2524 VRB20G30KT -TSRA BKN080CB=



000
FTUS45 KBOU 242321
TAFDEN
TAF
KDEN 242321Z 2500/2606 25014KT P6SM VCSH SCT070 BKN120
      TEMPO 2500/2501 25015G25KT
     FM250200 26010KT P6SM SCT100 BKN200
     FM250500 23008KT P6SM SCT200
     FM251400 15006KT P6SM SCT200
     FM252000 15012KT P6SM FEW080 BKN140
     FM252200 15015KT P6SM VCTS SCT080CB BKN140
      TEMPO 2523/2602 VRB20G30KT -TSRA BKN080CB
     FM260200 32012KT P6SM SCT060 BKN120
      TEMPO 2602/2606 -SHRA BKN060=



000
FTUS45 KBOU 242321
TAFDEN
TAF
KDEN 242321Z 2500/2606 25014KT P6SM VCSH SCT070 BKN120
      TEMPO 2500/2501 25015G25KT
     FM250200 26010KT P6SM SCT100 BKN200
     FM250500 23008KT P6SM SCT200
     FM251400 15006KT P6SM SCT200
     FM252000 15012KT P6SM FEW080 BKN140
     FM252200 15015KT P6SM VCTS SCT080CB BKN140
      TEMPO 2523/2602 VRB20G30KT -TSRA BKN080CB
     FM260200 32012KT P6SM SCT060 BKN120
      TEMPO 2602/2606 -SHRA BKN060=



000
FTUS45 KBOU 242321
TAFDEN
TAF
KDEN 242321Z 2500/2606 25014KT P6SM VCSH SCT070 BKN120
      TEMPO 2500/2501 25015G25KT
     FM250200 26010KT P6SM SCT100 BKN200
     FM250500 23008KT P6SM SCT200
     FM251400 15006KT P6SM SCT200
     FM252000 15012KT P6SM FEW080 BKN140
     FM252200 15015KT P6SM VCTS SCT080CB BKN140
      TEMPO 2523/2602 VRB20G30KT -TSRA BKN080CB
     FM260200 32012KT P6SM SCT060 BKN120
      TEMPO 2602/2606 -SHRA BKN060=



000
FTUS45 KBOU 242321
TAFDEN
TAF
KDEN 242321Z 2500/2606 25014KT P6SM VCSH SCT070 BKN120
      TEMPO 2500/2501 25015G25KT
     FM250200 26010KT P6SM SCT100 BKN200
     FM250500 23008KT P6SM SCT200
     FM251400 15006KT P6SM SCT200
     FM252000 15012KT P6SM FEW080 BKN140
     FM252200 15015KT P6SM VCTS SCT080CB BKN140
      TEMPO 2523/2602 VRB20G30KT -TSRA BKN080CB
     FM260200 32012KT P6SM SCT060 BKN120
      TEMPO 2602/2606 -SHRA BKN060=



000
FTUS45 KBOU 242130 AAC
TAFDEN
TAF AMD
KDEN 242130Z 2422/2524 32012KT P6SM VCTS SCT070CB BKN140
      TEMPO 2422/2501 VRB20G30KT -SHRA BKN070
     FM250300 28010KT P6SM FEW140 SCT200
     FM250800 23008KT P6SM SCT200
     FM251700 11006KT P6SM VCSH SCT080 SCT140 BKN200
     FM252200 36008KT P6SM -SHRA BKN080 OVC140=



000
FTUS45 KBOU 242130 AAC
TAFDEN
TAF AMD
KDEN 242130Z 2422/2524 32012KT P6SM VCTS SCT070CB BKN140
      TEMPO 2422/2501 VRB20G30KT -SHRA BKN070
     FM250300 28010KT P6SM FEW140 SCT200
     FM250800 23008KT P6SM SCT200
     FM251700 11006KT P6SM VCSH SCT080 SCT140 BKN200
     FM252200 36008KT P6SM -SHRA BKN080 OVC140=



000
FTUS45 KBOU 242058 AAB
TAFDEN
TAF AMD
KDEN 242058Z 2421/2524 32012KT P6SM VCSH SCT070 BKN140
      TEMPO 2421/2501 VRB20G30KT -SHRA BKN070
     FM250300 28010KT P6SM FEW140 SCT200
     FM250800 23008KT P6SM SCT200
     FM251700 11006KT P6SM VCSH SCT080 SCT140 BKN200
     FM252200 36008KT P6SM -SHRA BKN080 OVC140=



000
FTUS45 KBOU 242058 AAB
TAFDEN
TAF AMD
KDEN 242058Z 2421/2524 32012KT P6SM VCSH SCT070 BKN140
      TEMPO 2421/2501 VRB20G30KT -SHRA BKN070
     FM250300 28010KT P6SM FEW140 SCT200
     FM250800 23008KT P6SM SCT200
     FM251700 11006KT P6SM VCSH SCT080 SCT140 BKN200
     FM252200 36008KT P6SM -SHRA BKN080 OVC140=



000
FTUS45 KBOU 242058 AAB
TAFDEN
TAF AMD
KDEN 242058Z 2421/2524 32012KT P6SM VCSH SCT070 BKN140
      TEMPO 2421/2501 VRB20G30KT -SHRA BKN070
     FM250300 28010KT P6SM FEW140 SCT200
     FM250800 23008KT P6SM SCT200
     FM251700 11006KT P6SM VCSH SCT080 SCT140 BKN200
     FM252200 36008KT P6SM -SHRA BKN080 OVC140=



000
FTUS45 KBOU 241954 AAA
TAFDEN
TAF AMD
KDEN 241954Z 2420/2524 07007KT P6SM SCT080 SCT140 SCT200
     FM242100 01007KT P6SM VCSH SCT070 BKN140
      TEMPO 2421/2501 VRB20G30KT
     FM250300 28010KT P6SM FEW140 SCT200
     FM250800 23008KT P6SM SCT200
     FM251700 11006KT P6SM VCSH SCT080 SCT140 BKN200
     FM252200 36008KT P6SM -SHRA BKN080 OVC140=



000
FTUS45 KBOU 241954 AAA
TAFDEN
TAF AMD
KDEN 241954Z 2420/2524 07007KT P6SM SCT080 SCT140 SCT200
     FM242100 01007KT P6SM VCSH SCT070 BKN140
      TEMPO 2421/2501 VRB20G30KT
     FM250300 28010KT P6SM FEW140 SCT200
     FM250800 23008KT P6SM SCT200
     FM251700 11006KT P6SM VCSH SCT080 SCT140 BKN200
     FM252200 36008KT P6SM -SHRA BKN080 OVC140=



000
FTUS45 KBOU 241954 AAA
TAFDEN
TAF AMD
KDEN 241954Z 2420/2524 07007KT P6SM SCT080 SCT140 SCT200
     FM242100 01007KT P6SM VCSH SCT070 BKN140
      TEMPO 2421/2501 VRB20G30KT
     FM250300 28010KT P6SM FEW140 SCT200
     FM250800 23008KT P6SM SCT200
     FM251700 11006KT P6SM VCSH SCT080 SCT140 BKN200
     FM252200 36008KT P6SM -SHRA BKN080 OVC140=



000
FTUS45 KBOU 241954 AAA
TAFDEN
TAF AMD
KDEN 241954Z 2420/2524 07007KT P6SM SCT080 SCT140 SCT200
     FM242100 01007KT P6SM VCSH SCT070 BKN140
      TEMPO 2421/2501 VRB20G30KT
     FM250300 28010KT P6SM FEW140 SCT200
     FM250800 23008KT P6SM SCT200
     FM251700 11006KT P6SM VCSH SCT080 SCT140 BKN200
     FM252200 36008KT P6SM -SHRA BKN080 OVC140=



000
FTUS45 KBOU 241738
TAFAPA
TAF
KAPA 241738Z 2418/2518 03007KT P6SM FEW080 SCT140 SCT200
     FM242100 01007KT P6SM VCSH SCT070 BKN140
      TEMPO 2421/2501 VRB20G30KT
     FM250300 28010KT P6SM FEW140 SCT200
     FM250600 23008KT P6SM SCT200
     FM251700 11006KT P6SM VCSH SCT080 SCT140 BKN200=



000
FTUS45 KBOU 241738
TAFDEN
TAF
KDEN 241738Z 2418/2524 03007KT P6SM FEW090 SCT140 SCT200
     FM242100 01007KT P6SM VCSH SCT070 BKN140
      TEMPO 2421/2501 VRB20G30KT
     FM250300 28010KT P6SM FEW140 SCT200
     FM250800 23008KT P6SM SCT200
     FM251700 11006KT P6SM VCSH SCT080 SCT140 BKN200
     FM252200 36008KT P6SM -SHRA BKN080 OVC140=



000
FTUS45 KBOU 241738
TAFBJC
TAF
KBJC 241738Z 2418/2518 33006KT P6SM FEW120 SCT220
     FM241900 06007KT P6SM VCSH SCT090 BKN140
      TEMPO 2420/2424 VRB20G35KT
     FM250200 28015KT P6SM FEW140 SCT200
     FM250600 28018G28KT P6SM FEW140 SCT200
     FM251200 28018G28KT P6SM BKN140 BKN200
     FM251700 11006KT P6SM VCSH SCT080 SCT140 BKN200=



000
FTUS45 KBOU 241502 AAA
TAFAPA
TAF AMD
KAPA 241502Z 2415/2512 24005KT P6SM FEW070 FEW120 SCT220
     FM241600 34006KT P6SM FEW080 FEW120 SCT220
     FM241700 03007KT P6SM FEW080 SCT140 SCT200
     FM242100 01007KT P6SM VCSH SCT070 BKN140
      TEMPO 2421/2501 VRB20G30KT
     FM250300 28010KT P6SM FEW140 SCT200
     FM250600 23008KT P6SM SCT200=



000
FTUS45 KBOU 241502 AAA
TAFAPA
TAF AMD
KAPA 241502Z 2415/2512 24005KT P6SM FEW070 FEW120 SCT220
     FM241600 34006KT P6SM FEW080 FEW120 SCT220
     FM241700 03007KT P6SM FEW080 SCT140 SCT200
     FM242100 01007KT P6SM VCSH SCT070 BKN140
      TEMPO 2421/2501 VRB20G30KT
     FM250300 28010KT P6SM FEW140 SCT200
     FM250600 23008KT P6SM SCT200=



000
FTUS45 KBOU 241457 AAB
TAFDEN
TAF AMD
KDEN 241457Z 2415/2518 20009KT P6SM FEW070 FEW120 SCT220
     FM241600 25006KT P6SM FEW080 FEW120 SCT220
     FM241700 34006KT P6SM FEW090 SCT140 SCT220
     FM241900 03007KT P6SM FEW090 SCT140 SCT200
     FM242100 01007KT P6SM VCSH SCT070 BKN140
      TEMPO 2421/2501 VRB20G30KT
     FM250300 28010KT P6SM FEW140 SCT200
     FM250600 23008KT P6SM SCT200
     FM251500 08006KT P6SM SCT140 BKN200=



000
FTUS45 KBOU 241457 AAB
TAFDEN
TAF AMD
KDEN 241457Z 2415/2518 20009KT P6SM FEW070 FEW120 SCT220
     FM241600 25006KT P6SM FEW080 FEW120 SCT220
     FM241700 34006KT P6SM FEW090 SCT140 SCT220
     FM241900 03007KT P6SM FEW090 SCT140 SCT200
     FM242100 01007KT P6SM VCSH SCT070 BKN140
      TEMPO 2421/2501 VRB20G30KT
     FM250300 28010KT P6SM FEW140 SCT200
     FM250600 23008KT P6SM SCT200
     FM251500 08006KT P6SM SCT140 BKN200=



000
FTUS45 KBOU 241243 AAA
TAFDEN
TAF AMD
KDEN 241243Z 2413/2518 17011KT P6SM FEW120 SCT220
     FM241500 25006KT P6SM FEW120 SCT220
     FM241700 34006KT P6SM FEW090 SCT140 SCT220
     FM241900 03007KT P6SM FEW090 SCT140 SCT200
     FM242100 01007KT P6SM VCSH SCT090 BKN140
      TEMPO 2421/2501 VRB20G30KT
     FM250300 28010KT P6SM FEW140 SCT200
     FM250600 23008KT P6SM SCT200
     FM251500 08006KT P6SM SCT140 BKN200=



000
FTUS45 KBOU 241243 AAA
TAFDEN
TAF AMD
KDEN 241243Z 2413/2518 17011KT P6SM FEW120 SCT220
     FM241500 25006KT P6SM FEW120 SCT220
     FM241700 34006KT P6SM FEW090 SCT140 SCT220
     FM241900 03007KT P6SM FEW090 SCT140 SCT200
     FM242100 01007KT P6SM VCSH SCT090 BKN140
      TEMPO 2421/2501 VRB20G30KT
     FM250300 28010KT P6SM FEW140 SCT200
     FM250600 23008KT P6SM SCT200
     FM251500 08006KT P6SM SCT140 BKN200=



000
FTUS45 KBOU 241243 AAA
TAFDEN
TAF AMD
KDEN 241243Z 2413/2518 17011KT P6SM FEW120 SCT220
     FM241500 25006KT P6SM FEW120 SCT220
     FM241700 34006KT P6SM FEW090 SCT140 SCT220
     FM241900 03007KT P6SM FEW090 SCT140 SCT200
     FM242100 01007KT P6SM VCSH SCT090 BKN140
      TEMPO 2421/2501 VRB20G30KT
     FM250300 28010KT P6SM FEW140 SCT200
     FM250600 23008KT P6SM SCT200
     FM251500 08006KT P6SM SCT140 BKN200=



000
FTUS45 KBOU 241120
TAFBJC
TAF
KBJC 241120Z 2412/2512 28006KT P6SM FEW220
     FM241400 33008KT P6SM FEW120 SCT220
     FM242000 06007KT P6SM VCSH SCT090 BKN140
      TEMPO 2421/2501 VRB20G35KT
     FM250300 28015KT P6SM VCSH FEW140 SCT200
     FM250600 28018G28KT P6SM FEW140 SCT200=



000
FTUS45 KBOU 241120
TAFBJC
TAF
KBJC 241120Z 2412/2512 28006KT P6SM FEW220
     FM241400 33008KT P6SM FEW120 SCT220
     FM242000 06007KT P6SM VCSH SCT090 BKN140
      TEMPO 2421/2501 VRB20G35KT
     FM250300 28015KT P6SM VCSH FEW140 SCT200
     FM250600 28018G28KT P6SM FEW140 SCT200=



000
FTUS45 KBOU 241120
TAFDEN
TAF
KDEN 241120Z 2412/2518 VRB05KT P6SM FEW220
     FM241500 34006KT P6SM FEW120 SCT220
     FM241700 03007KT P6SM FEW090 SCT140 SCT200
     FM242100 01007KT P6SM VCSH SCT090 BKN140
      TEMPO 2421/2501 VRB20G30KT
     FM250300 28010KT P6SM FEW140 SCT200
     FM250600 23008KT P6SM SCT200
     FM251500 08006KT P6SM SCT140 BKN200=



000
FTUS45 KBOU 241120
TAFBJC
TAF
KBJC 241120Z 2412/2512 28006KT P6SM FEW220
     FM241400 33008KT P6SM FEW120 SCT220
     FM242000 06007KT P6SM VCSH SCT090 BKN140
      TEMPO 2421/2501 VRB20G35KT
     FM250300 28015KT P6SM VCSH FEW140 SCT200
     FM250600 28018G28KT P6SM FEW140 SCT200=



000
FTUS45 KBOU 241120
TAFAPA
TAF
KAPA 241120Z 2412/2512 VRB05KT P6SM FEW220
     FM241500 34006KT P6SM FEW120 SCT220
     FM241700 03007KT P6SM FEW090 SCT140 SCT200
     FM242100 01007KT P6SM VCSH SCT090 BKN140
      TEMPO 2421/2501 VRB20G30KT
     FM250300 28010KT P6SM FEW140 SCT200
     FM250600 23008KT P6SM SCT200=



000
FTUS45 KBOU 241120
TAFAPA
TAF
KAPA 241120Z 2412/2512 VRB05KT P6SM FEW220
     FM241500 34006KT P6SM FEW120 SCT220
     FM241700 03007KT P6SM FEW090 SCT140 SCT200
     FM242100 01007KT P6SM VCSH SCT090 BKN140
      TEMPO 2421/2501 VRB20G30KT
     FM250300 28010KT P6SM FEW140 SCT200
     FM250600 23008KT P6SM SCT200=



000
FTUS45 KBOU 241120
TAFDEN
TAF
KDEN 241120Z 2412/2518 VRB05KT P6SM FEW220
     FM241500 34006KT P6SM FEW120 SCT220
     FM241700 03007KT P6SM FEW090 SCT140 SCT200
     FM242100 01007KT P6SM VCSH SCT090 BKN140
      TEMPO 2421/2501 VRB20G30KT
     FM250300 28010KT P6SM FEW140 SCT200
     FM250600 23008KT P6SM SCT200
     FM251500 08006KT P6SM SCT140 BKN200=



000
FTUS45 KBOU 241120
TAFBJC
TAF
KBJC 241120Z 2412/2512 28006KT P6SM FEW220
     FM241400 33008KT P6SM FEW120 SCT220
     FM242000 06007KT P6SM VCSH SCT090 BKN140
      TEMPO 2421/2501 VRB20G35KT
     FM250300 28015KT P6SM VCSH FEW140 SCT200
     FM250600 28018G28KT P6SM FEW140 SCT200=



000
FTUS45 KBOU 241120
TAFDEN
TAF
KDEN 241120Z 2412/2518 VRB05KT P6SM FEW220
     FM241500 34006KT P6SM FEW120 SCT220
     FM241700 03007KT P6SM FEW090 SCT140 SCT200
     FM242100 01007KT P6SM VCSH SCT090 BKN140
      TEMPO 2421/2501 VRB20G30KT
     FM250300 28010KT P6SM FEW140 SCT200
     FM250600 23008KT P6SM SCT200
     FM251500 08006KT P6SM SCT140 BKN200=



000
FTUS45 KBOU 241120
TAFDEN
TAF
KDEN 241120Z 2412/2518 VRB05KT P6SM FEW220
     FM241500 34006KT P6SM FEW120 SCT220
     FM241700 03007KT P6SM FEW090 SCT140 SCT200
     FM242100 01007KT P6SM VCSH SCT090 BKN140
      TEMPO 2421/2501 VRB20G30KT
     FM250300 28010KT P6SM FEW140 SCT200
     FM250600 23008KT P6SM SCT200
     FM251500 08006KT P6SM SCT140 BKN200=



000
FTUS45 KBOU 241120
TAFAPA
TAF
KAPA 241120Z 2412/2512 VRB05KT P6SM FEW220
     FM241500 34006KT P6SM FEW120 SCT220
     FM241700 03007KT P6SM FEW090 SCT140 SCT200
     FM242100 01007KT P6SM VCSH SCT090 BKN140
      TEMPO 2421/2501 VRB20G30KT
     FM250300 28010KT P6SM FEW140 SCT200
     FM250600 23008KT P6SM SCT200=



000
FTUS45 KBOU 240901 AAB
TAFBJC
TAF AMD
KBJC 240901Z 2409/2506 21007KT P6SM SCT220
     FM241400 30008KT P6SM FEW120 SCT220
     FM242000 06007KT P6SM VCSH SCT090 BKN140
      TEMPO 2421/2501 VRB20G35KT
     FM250300 28015KT P6SM VCSH FEW140 SCT200=



000
FTUS45 KBOU 240901 AAB
TAFBJC
TAF AMD
KBJC 240901Z 2409/2506 21007KT P6SM SCT220
     FM241400 30008KT P6SM FEW120 SCT220
     FM242000 06007KT P6SM VCSH SCT090 BKN140
      TEMPO 2421/2501 VRB20G35KT
     FM250300 28015KT P6SM VCSH FEW140 SCT200=



000
FTUS45 KBOU 240900 AAA
TAFAPA
TAF AMD
KAPA 240900Z 2409/2506 19007KT P6SM FEW140 SCT220
     FM241500 VRB06KT P6SM FEW120 SCT220
     FM241700 04007KT P6SM FEW090 SCT140 SCT200
     FM242100 02007KT P6SM SCT090 BKN140
     FM250300 28010KT P6SM VCSH FEW140 SCT200=



000
FTUS45 KBOU 240900 AAA
TAFAPA
TAF AMD
KAPA 240900Z 2409/2506 19007KT P6SM FEW140 SCT220
     FM241500 VRB06KT P6SM FEW120 SCT220
     FM241700 04007KT P6SM FEW090 SCT140 SCT200
     FM242100 02007KT P6SM SCT090 BKN140
     FM250300 28010KT P6SM VCSH FEW140 SCT200=



000
FTUS45 KBOU 240859 AAA
TAFDEN
TAF AMD
KDEN 240859Z 2409/2512 22007KT P6SM SCT220
     FM241500 VRB06KT P6SM FEW120 SCT220
     FM241700 03007KT P6SM FEW090 SCT140 SCT200
     FM242100 01007KT P6SM SCT090 BKN140
     FM250300 28010KT P6SM VCSH FEW140 SCT200
     FM250600 23008KT P6SM SCT200=



000
FTUS45 KBOU 240859 AAA
TAFDEN
TAF AMD
KDEN 240859Z 2409/2512 22007KT P6SM SCT220
     FM241500 VRB06KT P6SM FEW120 SCT220
     FM241700 03007KT P6SM FEW090 SCT140 SCT200
     FM242100 01007KT P6SM SCT090 BKN140
     FM250300 28010KT P6SM VCSH FEW140 SCT200
     FM250600 23008KT P6SM SCT200=



000
FTUS45 KBOU 240859 AAA
TAFDEN
TAF AMD
KDEN 240859Z 2409/2512 22007KT P6SM SCT220
     FM241500 VRB06KT P6SM FEW120 SCT220
     FM241700 03007KT P6SM FEW090 SCT140 SCT200
     FM242100 01007KT P6SM SCT090 BKN140
     FM250300 28010KT P6SM VCSH FEW140 SCT200
     FM250600 23008KT P6SM SCT200=



000
FTUS45 KBOU 240611 AAA
TAFBJC
TAF AMD
KBJC 240611Z 2406/2506 28014KT P6SM SCT110 SCT220
     FM241400 30008KT P6SM FEW120 SCT220
     FM242000 06007KT P6SM VCTS SCT090CB BKN140
      TEMPO 2421/2501 VRB20G35KT
     FM250300 28015KT P6SM VCSH FEW140 SCT200=



000
FTUS45 KBOU 240611 AAA
TAFBJC
TAF AMD
KBJC 240611Z 2406/2506 28014KT P6SM SCT110 SCT220
     FM241400 30008KT P6SM FEW120 SCT220
     FM242000 06007KT P6SM VCTS SCT090CB BKN140
      TEMPO 2421/2501 VRB20G35KT
     FM250300 28015KT P6SM VCSH FEW140 SCT200=



000
FTUS45 KBOU 240531 CCA
TAFBJC
TAF COR
KBJC 240531Z 2406/2506 28014G20KT P6SM SCT110 SCT220
     FM241400 30008KT P6SM FEW120 SCT220
     FM242000 06007KT P6SM VCTS SCT090CB BKN140
      TEMPO 2421/2501 VRB20G35KT
     FM250300 28015KT P6SM VCSH FEW140 SCT200=



000
FTUS45 KBOU 240530 CCA
TAFDEN
TAF COR
KDEN 240530Z 2406/2512 25007KT P6SM SCT140 BKN220
     FM241500 VRB06KT P6SM FEW120 SCT220
     FM241700 03007KT P6SM FEW090 SCT140 SCT200
     FM242100 01007KT P6SM VCTS SCT090CB BKN140
      TEMPO 2421/2501 VRB20G35KT
     FM250300 28010KT P6SM VCSH FEW140 SCT200
     FM250600 23008KT P6SM SCT200=



000
FTUS45 KBOU 240530 CCA
TAFDEN
TAF COR
KDEN 240530Z 2406/2512 25007KT P6SM SCT140 BKN220
     FM241500 VRB06KT P6SM FEW120 SCT220
     FM241700 03007KT P6SM FEW090 SCT140 SCT200
     FM242100 01007KT P6SM VCTS SCT090CB BKN140
      TEMPO 2421/2501 VRB20G35KT
     FM250300 28010KT P6SM VCSH FEW140 SCT200
     FM250600 23008KT P6SM SCT200=



000
FTUS45 KBOU 240520
TAFDEN
TAF
KDEN 240520Z 2406/2512 22007KT P6SM SCT140 BKN220
     FM241500 VRB06KT P6SM FEW120 SCT220
     FM241700 03007KT P6SM FEW090 SCT140 SCT200
     FM242100 01007KT P6SM VCTS SCT090CB BKN140
      TEMPO 2421/2501 VRB20G35KT
     FM250300 28010KT P6SM VCSH FEW140 SCT200
     FM250600 23008KT P6SM SCT200=



000
FTUS45 KBOU 240520
TAFAPA
TAF
KAPA 240520Z 2406/2506 22007KT P6SM FEW140 SCT220
     FM241500 VRB06KT P6SM FEW120 SCT220
     FM241700 04007KT P6SM FEW090 SCT140 SCT200
     FM242100 02007KT P6SM VCTS SCT090CB BKN140
      TEMPO 2421/2501 VRB20G35KT
     FM250300 28010KT P6SM VCSH FEW140 SCT200=



000
FTUS45 KBOU 240520
TAFDEN
TAF
KDEN 240520Z 2406/2512 22007KT P6SM SCT140 BKN220
     FM241500 VRB06KT P6SM FEW120 SCT220
     FM241700 03007KT P6SM FEW090 SCT140 SCT200
     FM242100 01007KT P6SM VCTS SCT090CB BKN140
      TEMPO 2421/2501 VRB20G35KT
     FM250300 28010KT P6SM VCSH FEW140 SCT200
     FM250600 23008KT P6SM SCT200=



000
FTUS45 KBOU 240520
TAFBJC
TAF
KBJC 240520Z 2406/2506 02007KT P6SM SCT110 SCT220
     FM240700 30008KT P6SM FEW120 SCT220
     FM242000 06007KT P6SM VCTS SCT090CB BKN140
      TEMPO 2421/2501 VRB20G35KT
     FM250300 28015KT P6SM VCSH FEW140 SCT200=



000
FTUS45 KBOU 240520
TAFAPA
TAF
KAPA 240520Z 2406/2506 22007KT P6SM FEW140 SCT220
     FM241500 VRB06KT P6SM FEW120 SCT220
     FM241700 04007KT P6SM FEW090 SCT140 SCT200
     FM242100 02007KT P6SM VCTS SCT090CB BKN140
      TEMPO 2421/2501 VRB20G35KT
     FM250300 28010KT P6SM VCSH FEW140 SCT200=



000
FTUS45 KBOU 240520
TAFBJC
TAF
KBJC 240520Z 2406/2506 02007KT P6SM SCT110 SCT220
     FM240700 30008KT P6SM FEW120 SCT220
     FM242000 06007KT P6SM VCTS SCT090CB BKN140
      TEMPO 2421/2501 VRB20G35KT
     FM250300 28015KT P6SM VCSH FEW140 SCT200=



000
FTUS45 KBOU 240257 AAB
TAFDEN
TAF AMD
KDEN 240257Z 2403/2506 22007KT P6SM SCT120 BKN220
     FM241500 VRB06KT P6SM FEW120 SCT220
     FM241700 03007KT P6SM FEW090 SCT140 SCT200
      TEMPO 2421/2501 VRB16G32KT -TSRA BKN080CB=



000
FTUS45 KBOU 240257 AAB
TAFDEN
TAF AMD
KDEN 240257Z 2403/2506 22007KT P6SM SCT120 BKN220
     FM241500 VRB06KT P6SM FEW120 SCT220
     FM241700 03007KT P6SM FEW090 SCT140 SCT200
      TEMPO 2421/2501 VRB16G32KT -TSRA BKN080CB=



000
FTUS45 KBOU 240205 AAB
TAFBJC
TAF AMD
KBJC 240205Z 2402/2424 27012KT P6SM VCSH SCT070 BKN100 BKN220
     FM240500 24007KT P6SM SCT120 BKN220
     FM240700 30008KT P6SM FEW120 SCT220
     FM241700 06006KT P6SM FEW090 SCT140 SCT200
      TEMPO 2420/2424 VRB16G32KT -TSRA BKN080CB=



000
FTUS45 KBOU 240205 AAB
TAFBJC
TAF AMD
KBJC 240205Z 2402/2424 27012KT P6SM VCSH SCT070 BKN100 BKN220
     FM240500 24007KT P6SM SCT120 BKN220
     FM240700 30008KT P6SM FEW120 SCT220
     FM241700 06006KT P6SM FEW090 SCT140 SCT200
      TEMPO 2420/2424 VRB16G32KT -TSRA BKN080CB=



000
FTUS45 KBOU 240205 AAB
TAFBJC
TAF AMD
KBJC 240205Z 2402/2424 27012KT P6SM VCSH SCT070 BKN100 BKN220
     FM240500 24007KT P6SM SCT120 BKN220
     FM240700 30008KT P6SM FEW120 SCT220
     FM241700 06006KT P6SM FEW090 SCT140 SCT200
      TEMPO 2420/2424 VRB16G32KT -TSRA BKN080CB=



000
FTUS45 KBOU 240133 AAA
TAFDEN
TAF AMD
KDEN 240133Z 2402/2506 22012KT P6SM SCT100 SCT150 BKN220
     FM240400 21010KT P6SM SCT120 BKN220
     FM241500 VRB06KT P6SM FEW120 SCT220
     FM241700 03007KT P6SM FEW090 SCT140 SCT200
      TEMPO 2421/2501 VRB16G32KT -TSRA BKN080CB=



000
FTUS45 KBOU 240133 AAA
TAFDEN
TAF AMD
KDEN 240133Z 2402/2506 22012KT P6SM SCT100 SCT150 BKN220
     FM240400 21010KT P6SM SCT120 BKN220
     FM241500 VRB06KT P6SM FEW120 SCT220
     FM241700 03007KT P6SM FEW090 SCT140 SCT200
      TEMPO 2421/2501 VRB16G32KT -TSRA BKN080CB=



000
FTUS45 KBOU 240133 AAA
TAFDEN
TAF AMD
KDEN 240133Z 2402/2506 22012KT P6SM SCT100 SCT150 BKN220
     FM240400 21010KT P6SM SCT120 BKN220
     FM241500 VRB06KT P6SM FEW120 SCT220
     FM241700 03007KT P6SM FEW090 SCT140 SCT200
      TEMPO 2421/2501 VRB16G32KT -TSRA BKN080CB=



000
FTUS45 KBOU 240133 AAA
TAFDEN
TAF AMD
KDEN 240133Z 2402/2506 22012KT P6SM SCT100 SCT150 BKN220
     FM240400 21010KT P6SM SCT120 BKN220
     FM241500 VRB06KT P6SM FEW120 SCT220
     FM241700 03007KT P6SM FEW090 SCT140 SCT200
      TEMPO 2421/2501 VRB16G32KT -TSRA BKN080CB=



000
FTUS45 KBOU 232350 AAA
TAFAPA
TAF AMD
KAPA 232350Z 2400/2424 15006KT P6SM SCT070 BKN130 BKN220
     FM240300 19010KT P6SM SCT120 BKN220
     FM241500 VRB06KT P6SM FEW120 SCT220
     FM241700 04006KT P6SM FEW090 SCT140 SCT200
      TEMPO 2421/2424 VRB16G32KT -TSRA BKN080CB=



000
FTUS45 KBOU 232350 AAA
TAFBJC
TAF AMD
KBJC 232350Z 2400/2424 VRB05KT P6SM FEW070 SCT110 BKN150
     FM240300 24007KT P6SM SCT120 BKN220
     FM240700 30008KT P6SM FEW120 SCT220
     FM241700 06006KT P6SM FEW090 SCT140 SCT200
      TEMPO 2420/2424 VRB16G32KT -TSRA BKN080CB=



000
FTUS45 KBOU 232350 AAA
TAFAPA
TAF AMD
KAPA 232350Z 2400/2424 15006KT P6SM SCT070 BKN130 BKN220
     FM240300 19010KT P6SM SCT120 BKN220
     FM241500 VRB06KT P6SM FEW120 SCT220
     FM241700 04006KT P6SM FEW090 SCT140 SCT200
      TEMPO 2421/2424 VRB16G32KT -TSRA BKN080CB=



000
FTUS45 KBOU 232350 AAA
TAFBJC
TAF AMD
KBJC 232350Z 2400/2424 VRB05KT P6SM FEW070 SCT110 BKN150
     FM240300 24007KT P6SM SCT120 BKN220
     FM240700 30008KT P6SM FEW120 SCT220
     FM241700 06006KT P6SM FEW090 SCT140 SCT200
      TEMPO 2420/2424 VRB16G32KT -TSRA BKN080CB=



000
FTUS45 KBOU 232350 AAA
TAFAPA
TAF AMD
KAPA 232350Z 2400/2424 15006KT P6SM SCT070 BKN130 BKN220
     FM240300 19010KT P6SM SCT120 BKN220
     FM241500 VRB06KT P6SM FEW120 SCT220
     FM241700 04006KT P6SM FEW090 SCT140 SCT200
      TEMPO 2421/2424 VRB16G32KT -TSRA BKN080CB=



000
FTUS45 KBOU 232350 AAA
TAFBJC
TAF AMD
KBJC 232350Z 2400/2424 VRB05KT P6SM FEW070 SCT110 BKN150
     FM240300 24007KT P6SM SCT120 BKN220
     FM240700 30008KT P6SM FEW120 SCT220
     FM241700 06006KT P6SM FEW090 SCT140 SCT200
      TEMPO 2420/2424 VRB16G32KT -TSRA BKN080CB=



000
FTUS45 KBOU 232340
TAFBJC
TAF
KBJC 232340Z 2400/2424 26009KT P6SM VCSH SCT070 BKN110
      TEMPO 2400/2401 VRB20G30KT -TSRA BKN070CB
     FM240200 26012KT P6SM SCT140 BKN220
     FM240600 24012KT P6SM FEW140 SCT220
     FM240900 27015KT P6SM SCT120 BKN200=



000
FTUS45 KBOU 232340
TAFDEN
TAF
KDEN 232340Z 2400/2506 15009KT P6SM SCT060 BKN110
     FM240300 21011KT P6SM SCT120 BKN220
     FM241500 VRB06KT P6SM FEW120 SCT220
     FM241700 03007KT P6SM FEW090 SCT140 SCT200
      TEMPO 2421/2501 VRB16G32KT -TSRA BKN080CB=



000
FTUS45 KBOU 232340
TAFBJC
TAF
KBJC 232340Z 2400/2424 26009KT P6SM VCSH SCT070 BKN110
      TEMPO 2400/2401 VRB20G30KT -TSRA BKN070CB
     FM240200 26012KT P6SM SCT140 BKN220
     FM240600 24012KT P6SM FEW140 SCT220
     FM240900 27015KT P6SM SCT120 BKN200=



000
FTUS45 KBOU 232340
TAFAPA
TAF
KAPA 232340Z 2400/2424 18009KT P6SM SCT080 BKN150
      TEMPO 2400/2401 VRB25G40KT -TSRA BKN070CB
     FM240100 18012KT P6SM SCT140 BKN220
     FM240300 21009KT P6SM FEW140 SCT220
     FM241500 24006KT P6SM FEW120 SCT200=



000
FTUS45 KBOU 232340
TAFAPA
TAF
KAPA 232340Z 2400/2424 18009KT P6SM SCT080 BKN150
      TEMPO 2400/2401 VRB25G40KT -TSRA BKN070CB
     FM240100 18012KT P6SM SCT140 BKN220
     FM240300 21009KT P6SM FEW140 SCT220
     FM241500 24006KT P6SM FEW120 SCT200=



000
FTUS45 KBOU 232340
TAFDEN
TAF
KDEN 232340Z 2400/2506 15009KT P6SM SCT060 BKN110
     FM240300 21011KT P6SM SCT120 BKN220
     FM241500 VRB06KT P6SM FEW120 SCT220
     FM241700 03007KT P6SM FEW090 SCT140 SCT200
      TEMPO 2421/2501 VRB16G32KT -TSRA BKN080CB=



000
FTUS45 KBOU 232340
TAFBJC
TAF
KBJC 232340Z 2400/2424 26009KT P6SM VCSH SCT070 BKN110
      TEMPO 2400/2401 VRB20G30KT -TSRA BKN070CB
     FM240200 26012KT P6SM SCT140 BKN220
     FM240600 24012KT P6SM FEW140 SCT220
     FM240900 27015KT P6SM SCT120 BKN200=



000
FTUS45 KBOU 232340
TAFDEN
TAF
KDEN 232340Z 2400/2506 15009KT P6SM SCT060 BKN110
     FM240300 21011KT P6SM SCT120 BKN220
     FM241500 VRB06KT P6SM FEW120 SCT220
     FM241700 03007KT P6SM FEW090 SCT140 SCT200
      TEMPO 2421/2501 VRB16G32KT -TSRA BKN080CB=



000
FTUS45 KBOU 232340
TAFAPA
TAF
KAPA 232340Z 2400/2424 18009KT P6SM SCT080 BKN150
      TEMPO 2400/2401 VRB25G40KT -TSRA BKN070CB
     FM240100 18012KT P6SM SCT140 BKN220
     FM240300 21009KT P6SM FEW140 SCT220
     FM241500 24006KT P6SM FEW120 SCT200=



000
FTUS45 KBOU 232340
TAFBJC
TAF
KBJC 232340Z 2400/2424 26009KT P6SM VCSH SCT070 BKN110
      TEMPO 2400/2401 VRB20G30KT -TSRA BKN070CB
     FM240200 26012KT P6SM SCT140 BKN220
     FM240600 24012KT P6SM FEW140 SCT220
     FM240900 27015KT P6SM SCT120 BKN200=



000
FTUS45 KBOU 232340
TAFDEN
TAF
KDEN 232340Z 2400/2506 15009KT P6SM SCT060 BKN110
     FM240300 21011KT P6SM SCT120 BKN220
     FM241500 VRB06KT P6SM FEW120 SCT220
     FM241700 03007KT P6SM FEW090 SCT140 SCT200
      TEMPO 2421/2501 VRB16G32KT -TSRA BKN080CB=



000
FTUS45 KBOU 232340
TAFAPA
TAF
KAPA 232340Z 2400/2424 18009KT P6SM SCT080 BKN150
      TEMPO 2400/2401 VRB25G40KT -TSRA BKN070CB
     FM240100 18012KT P6SM SCT140 BKN220
     FM240300 21009KT P6SM FEW140 SCT220
     FM241500 24006KT P6SM FEW120 SCT200=



000
FTUS45 KBOU 232212 AAD
TAFDEN
TAF AMD
KDEN 232212Z 2322/2424 VRB04KT P6SM SCT060 BKN110
     FM232300 22012G20KT P6SM SCT060 BKN110
      TEMPO 2323/2324 VRB20G30KT -TSRA BKN060CB
     FM240100 16012KT P6SM SCT140 BKN220
     FM240300 21011KT P6SM FEW140 SCT220
     FM241500 24010KT P6SM FEW120 SCT200
     FM241700 29012KT P6SM FEW090 SCT140 SCT200=



000
FTUS45 KBOU 232212 AAA
TAFBJC
TAF AMD
KBJC 232212Z 2322/2418 26009KT P6SM VCSH SCT070 BKN110
      TEMPO 2322/2401 VRB20G30KT -TSRA BKN070CB
     FM240200 26012KT P6SM SCT140 BKN220
     FM240600 24012KT P6SM FEW140 SCT220
     FM240900 27015KT P6SM SCT120 BKN200=



000
FTUS45 KBOU 232212 AAA
TAFBJC
TAF AMD
KBJC 232212Z 2322/2418 26009KT P6SM VCSH SCT070 BKN110
      TEMPO 2322/2401 VRB20G30KT -TSRA BKN070CB
     FM240200 26012KT P6SM SCT140 BKN220
     FM240600 24012KT P6SM FEW140 SCT220
     FM240900 27015KT P6SM SCT120 BKN200=



000
FTUS45 KBOU 232212 AAD
TAFDEN
TAF AMD
KDEN 232212Z 2322/2424 VRB04KT P6SM SCT060 BKN110
     FM232300 22012G20KT P6SM SCT060 BKN110
      TEMPO 2323/2324 VRB20G30KT -TSRA BKN060CB
     FM240100 16012KT P6SM SCT140 BKN220
     FM240300 21011KT P6SM FEW140 SCT220
     FM241500 24010KT P6SM FEW120 SCT200
     FM241700 29012KT P6SM FEW090 SCT140 SCT200=



000
FTUS45 KBOU 232108 AAC
TAFDEN
TAF AMD
KDEN 232108Z 2321/2424 27014G28KT P6SM SCT090 BKN120
      TEMPO 2321/2323 VRB25G40KT -TSRA BKN070CB
     FM240100 16012KT P6SM SCT140 BKN220
     FM240300 21011KT P6SM FEW140 SCT220
     FM241500 24010KT P6SM FEW120 SCT200
     FM241700 29012KT P6SM FEW090 SCT140 SCT200=



000
FTUS45 KBOU 232108 AAC
TAFDEN
TAF AMD
KDEN 232108Z 2321/2424 27014G28KT P6SM SCT090 BKN120
      TEMPO 2321/2323 VRB25G40KT -TSRA BKN070CB
     FM240100 16012KT P6SM SCT140 BKN220
     FM240300 21011KT P6SM FEW140 SCT220
     FM241500 24010KT P6SM FEW120 SCT200
     FM241700 29012KT P6SM FEW090 SCT140 SCT200=



000
FTUS45 KBOU 232059 AAB
TAFDEN
TAF AMD
KDEN 232059Z 2321/2424 27014G28KT P6SM SCT090 BKN120
      TEMPO 2322/2324 VRB25G40KT -TSRA BKN070CB
     FM240100 16012KT P6SM SCT140 BKN220
     FM240300 21011KT P6SM FEW140 SCT220
     FM241500 24010KT P6SM FEW120 SCT200
     FM241700 29012KT P6SM FEW090 SCT140 SCT200=



000
FTUS45 KBOU 232059 AAB
TAFDEN
TAF AMD
KDEN 232059Z 2321/2424 27014G28KT P6SM SCT090 BKN120
      TEMPO 2322/2324 VRB25G40KT -TSRA BKN070CB
     FM240100 16012KT P6SM SCT140 BKN220
     FM240300 21011KT P6SM FEW140 SCT220
     FM241500 24010KT P6SM FEW120 SCT200
     FM241700 29012KT P6SM FEW090 SCT140 SCT200=



000
FTUS45 KBOU 232007 AAA
TAFDEN
TAF AMD
KDEN 232007Z 2320/2424 34010KT P6SM VCTS SCT080CB BKN150
      TEMPO 2321/2401 VRB25G40KT -TSRA BKN070CB
     FM240100 16012KT P6SM SCT140 BKN220
     FM240300 21011KT P6SM FEW140 SCT220
     FM241500 24010KT P6SM FEW120 SCT200
     FM241700 29012KT P6SM FEW090 SCT140 SCT200=



000
FTUS45 KBOU 232007 AAA
TAFDEN
TAF AMD
KDEN 232007Z 2320/2424 34010KT P6SM VCTS SCT080CB BKN150
      TEMPO 2321/2401 VRB25G40KT -TSRA BKN070CB
     FM240100 16012KT P6SM SCT140 BKN220
     FM240300 21011KT P6SM FEW140 SCT220
     FM241500 24010KT P6SM FEW120 SCT200
     FM241700 29012KT P6SM FEW090 SCT140 SCT200=



000
FTUS45 KBOU 231735
TAFBJC
TAF
KBJC 231735Z 2318/2418 11006KT P6SM FEW070 SCT120 BKN200
     FM232100 28015KT P6SM VCSH SCT070 BKN110
      TEMPO 2321/2401 VRB25G40KT -TSRA BKN070CB
     FM240200 26012KT P6SM SCT140 BKN220
     FM240600 24012KT P6SM FEW140 SCT220
     FM240900 27015KT P6SM SCT120 BKN200=



000
FTUS45 KBOU 231735
TAFDEN
TAF
KDEN 231735Z 2318/2424 18006KT P6SM FEW090 SCT150 SCT220
     FM232000 15009KT P6SM SCT080 BKN150
      TEMPO 2321/2401 VRB25G40KT -TSRA BKN070CB
     FM240100 16012KT P6SM SCT140 BKN220
     FM240300 21011KT P6SM FEW140 SCT220
     FM241500 24010KT P6SM FEW120 SCT200
     FM241700 29012KT P6SM FEW090 SCT140 SCT200=



000
FTUS45 KBOU 231735
TAFBJC
TAF
KBJC 231735Z 2318/2418 11006KT P6SM FEW070 SCT120 BKN200
     FM232100 28015KT P6SM VCSH SCT070 BKN110
      TEMPO 2321/2401 VRB25G40KT -TSRA BKN070CB
     FM240200 26012KT P6SM SCT140 BKN220
     FM240600 24012KT P6SM FEW140 SCT220
     FM240900 27015KT P6SM SCT120 BKN200=



000
FTUS45 KBOU 231735
TAFDEN
TAF
KDEN 231735Z 2318/2424 18006KT P6SM FEW090 SCT150 SCT220
     FM232000 15009KT P6SM SCT080 BKN150
      TEMPO 2321/2401 VRB25G40KT -TSRA BKN070CB
     FM240100 16012KT P6SM SCT140 BKN220
     FM240300 21011KT P6SM FEW140 SCT220
     FM241500 24010KT P6SM FEW120 SCT200
     FM241700 29012KT P6SM FEW090 SCT140 SCT200=



000
FTUS45 KBOU 231735
TAFAPA
TAF
KAPA 231735Z 2318/2418 23005KT P6SM FEW090 SCT150 SCT220
     FM232000 18009KT P6SM SCT080 BKN150
      TEMPO 2321/2401 VRB25G40KT -TSRA BKN070CB
     FM240100 18012KT P6SM SCT140 BKN220
     FM240300 21009KT P6SM FEW140 SCT220
     FM241500 24006KT P6SM FEW120 SCT200=



000
FTUS45 KBOU 231735
TAFAPA
TAF
KAPA 231735Z 2318/2418 23005KT P6SM FEW090 SCT150 SCT220
     FM232000 18009KT P6SM SCT080 BKN150
      TEMPO 2321/2401 VRB25G40KT -TSRA BKN070CB
     FM240100 18012KT P6SM SCT140 BKN220
     FM240300 21009KT P6SM FEW140 SCT220
     FM241500 24006KT P6SM FEW120 SCT200=



000
FTUS45 KBOU 231424 AAA
TAFAPA
TAF AMD
KAPA 231424Z 2314/2412 22012KT P6SM FEW150 SCT220
     FM231700 VRB05KT P6SM FEW090 SCT150 SCT220
     FM231900 15006KT P6SM FEW080 SCT120 BKN200
     FM232100 24012KT P6SM VCSH SCT070 BKN110
      TEMPO 2321/2401 VRB25G40KT BKN070
     FM240300 15008KT P6SM SCT140 BKN220
     FM240600 19008KT P6SM FEW140 SCT220
     FM240900 22008KT P6SM SCT120 BKN200=



000
FTUS45 KBOU 231424 AAA
TAFAPA
TAF AMD
KAPA 231424Z 2314/2412 22012KT P6SM FEW150 SCT220
     FM231700 VRB05KT P6SM FEW090 SCT150 SCT220
     FM231900 15006KT P6SM FEW080 SCT120 BKN200
     FM232100 24012KT P6SM VCSH SCT070 BKN110
      TEMPO 2321/2401 VRB25G40KT BKN070
     FM240300 15008KT P6SM SCT140 BKN220
     FM240600 19008KT P6SM FEW140 SCT220
     FM240900 22008KT P6SM SCT120 BKN200=



000
FTUS45 KBOU 231424 AAA
TAFAPA
TAF AMD
KAPA 231424Z 2314/2412 22012KT P6SM FEW150 SCT220
     FM231700 VRB05KT P6SM FEW090 SCT150 SCT220
     FM231900 15006KT P6SM FEW080 SCT120 BKN200
     FM232100 24012KT P6SM VCSH SCT070 BKN110
      TEMPO 2321/2401 VRB25G40KT BKN070
     FM240300 15008KT P6SM SCT140 BKN220
     FM240600 19008KT P6SM FEW140 SCT220
     FM240900 22008KT P6SM SCT120 BKN200=



000
FTUS45 KBOU 231424 AAA
TAFAPA
TAF AMD
KAPA 231424Z 2314/2412 22012KT P6SM FEW150 SCT220
     FM231700 VRB05KT P6SM FEW090 SCT150 SCT220
     FM231900 15006KT P6SM FEW080 SCT120 BKN200
     FM232100 24012KT P6SM VCSH SCT070 BKN110
      TEMPO 2321/2401 VRB25G40KT BKN070
     FM240300 15008KT P6SM SCT140 BKN220
     FM240600 19008KT P6SM FEW140 SCT220
     FM240900 22008KT P6SM SCT120 BKN200=



000
FTUS45 KBOU 231421 AAA
TAFDEN
TAF AMD
KDEN 231421Z 2314/2418 22014KT P6SM FEW090 SCT150 SCT220
     FM231700 24008KT P6SM FEW090 SCT150 SCT220
     FM232100 24012KT P6SM VCSH SCT070 BKN110
      TEMPO 2321/2401 VRB25G40KT BKN070
     FM240300 15008KT P6SM SCT140 BKN220
     FM240600 21008KT P6SM FEW140 SCT220
     FM240900 24008KT P6SM SCT120 BKN200
     FM241500 28012KT P6SM SCT090 BKN140=



000
FTUS45 KBOU 231421 AAA
TAFDEN
TAF AMD
KDEN 231421Z 2314/2418 22014KT P6SM FEW090 SCT150 SCT220
     FM231700 24008KT P6SM FEW090 SCT150 SCT220
     FM232100 24012KT P6SM VCSH SCT070 BKN110
      TEMPO 2321/2401 VRB25G40KT BKN070
     FM240300 15008KT P6SM SCT140 BKN220
     FM240600 21008KT P6SM FEW140 SCT220
     FM240900 24008KT P6SM SCT120 BKN200
     FM241500 28012KT P6SM SCT090 BKN140=



000
FTUS45 KBOU 231120
TAFAPA
TAF
KAPA 231120Z 2312/2412 24008KT P6SM FEW150 SCT220
     FM231500 VRB05KT P6SM SCT220
     FM231900 15006KT P6SM FEW080 SCT120 BKN200
     FM232100 24012KT P6SM VCSH SCT070 BKN110
      TEMPO 2321/2401 VRB25G40KT BKN070
     FM240300 15008KT P6SM SCT140 BKN220
     FM240600 19008KT P6SM FEW140 SCT220
     FM240900 22008KT P6SM SCT120 BKN200=



000
FTUS45 KBOU 231120
TAFBJC
TAF
KBJC 231120Z 2312/2412 VRB04KT P6SM FEW150 SCT220
     FM231900 10006KT P6SM FEW080 SCT120 BKN200
     FM232100 28015KT P6SM VCSH SCT070 BKN110
      TEMPO 2321/2401 VRB25G40KT BKN070
     FM240300 26012KT P6SM SCT140 BKN220
     FM240600 24012KT P6SM FEW140 SCT220
     FM240900 27015KT P6SM SCT120 BKN200=



000
FTUS45 KBOU 231120
TAFBJC
TAF
KBJC 231120Z 2312/2412 VRB04KT P6SM FEW150 SCT220
     FM231900 10006KT P6SM FEW080 SCT120 BKN200
     FM232100 28015KT P6SM VCSH SCT070 BKN110
      TEMPO 2321/2401 VRB25G40KT BKN070
     FM240300 26012KT P6SM SCT140 BKN220
     FM240600 24012KT P6SM FEW140 SCT220
     FM240900 27015KT P6SM SCT120 BKN200=



000
FTUS45 KBOU 231120
TAFAPA
TAF
KAPA 231120Z 2312/2412 24008KT P6SM FEW150 SCT220
     FM231500 VRB05KT P6SM SCT220
     FM231900 15006KT P6SM FEW080 SCT120 BKN200
     FM232100 24012KT P6SM VCSH SCT070 BKN110
      TEMPO 2321/2401 VRB25G40KT BKN070
     FM240300 15008KT P6SM SCT140 BKN220
     FM240600 19008KT P6SM FEW140 SCT220
     FM240900 22008KT P6SM SCT120 BKN200=



000
FTUS45 KBOU 231120
TAFDEN
TAF
KDEN 231120Z 2312/2418 24008KT P6SM FEW150 SCT220
     FM231500 VRB05KT P6SM SCT220
     FM231900 12006KT P6SM FEW080 SCT120 BKN200
     FM232100 24012KT P6SM VCSH SCT070 BKN110
      TEMPO 2321/2401 VRB25G40KT BKN070
     FM240300 15008KT P6SM SCT140 BKN220
     FM240600 21008KT P6SM FEW140 SCT220
     FM240900 24008KT P6SM SCT120 BKN200
     FM241500 28012KT P6SM SCT090 BKN140=



000
FTUS45 KBOU 231120
TAFDEN
TAF
KDEN 231120Z 2312/2418 24008KT P6SM FEW150 SCT220
     FM231500 VRB05KT P6SM SCT220
     FM231900 12006KT P6SM FEW080 SCT120 BKN200
     FM232100 24012KT P6SM VCSH SCT070 BKN110
      TEMPO 2321/2401 VRB25G40KT BKN070
     FM240300 15008KT P6SM SCT140 BKN220
     FM240600 21008KT P6SM FEW140 SCT220
     FM240900 24008KT P6SM SCT120 BKN200
     FM241500 28012KT P6SM SCT090 BKN140=



000
FTUS45 KBOU 231120
TAFBJC
TAF
KBJC 231120Z 2312/2412 VRB04KT P6SM FEW150 SCT220
     FM231900 10006KT P6SM FEW080 SCT120 BKN200
     FM232100 28015KT P6SM VCSH SCT070 BKN110
      TEMPO 2321/2401 VRB25G40KT BKN070
     FM240300 26012KT P6SM SCT140 BKN220
     FM240600 24012KT P6SM FEW140 SCT220
     FM240900 27015KT P6SM SCT120 BKN200=



000
FTUS45 KBOU 231120
TAFDEN
TAF
KDEN 231120Z 2312/2418 24008KT P6SM FEW150 SCT220
     FM231500 VRB05KT P6SM SCT220
     FM231900 12006KT P6SM FEW080 SCT120 BKN200
     FM232100 24012KT P6SM VCSH SCT070 BKN110
      TEMPO 2321/2401 VRB25G40KT BKN070
     FM240300 15008KT P6SM SCT140 BKN220
     FM240600 21008KT P6SM FEW140 SCT220
     FM240900 24008KT P6SM SCT120 BKN200
     FM241500 28012KT P6SM SCT090 BKN140=



000
FTUS45 KBOU 231120
TAFDEN
TAF
KDEN 231120Z 2312/2418 24008KT P6SM FEW150 SCT220
     FM231500 VRB05KT P6SM SCT220
     FM231900 12006KT P6SM FEW080 SCT120 BKN200
     FM232100 24012KT P6SM VCSH SCT070 BKN110
      TEMPO 2321/2401 VRB25G40KT BKN070
     FM240300 15008KT P6SM SCT140 BKN220
     FM240600 21008KT P6SM FEW140 SCT220
     FM240900 24008KT P6SM SCT120 BKN200
     FM241500 28012KT P6SM SCT090 BKN140=



000
FTUS45 KBOU 231120
TAFAPA
TAF
KAPA 231120Z 2312/2412 24008KT P6SM FEW150 SCT220
     FM231500 VRB05KT P6SM SCT220
     FM231900 15006KT P6SM FEW080 SCT120 BKN200
     FM232100 24012KT P6SM VCSH SCT070 BKN110
      TEMPO 2321/2401 VRB25G40KT BKN070
     FM240300 15008KT P6SM SCT140 BKN220
     FM240600 19008KT P6SM FEW140 SCT220
     FM240900 22008KT P6SM SCT120 BKN200=



000
FTUS45 KBOU 231120
TAFAPA
TAF
KAPA 231120Z 2312/2412 24008KT P6SM FEW150 SCT220
     FM231500 VRB05KT P6SM SCT220
     FM231900 15006KT P6SM FEW080 SCT120 BKN200
     FM232100 24012KT P6SM VCSH SCT070 BKN110
      TEMPO 2321/2401 VRB25G40KT BKN070
     FM240300 15008KT P6SM SCT140 BKN220
     FM240600 19008KT P6SM FEW140 SCT220
     FM240900 22008KT P6SM SCT120 BKN200=



000
FTUS45 KBOU 231101 AAB
TAFAPA
TAF AMD
KAPA 231101Z 2311/2406 23010KT P6SM FEW220
     FM231500 VRB05KT P6SM SCT200
     FM231900 15006KT P6SM FEW080 SCT120 BKN200
     FM232100 24012KT P6SM SCT070 BKN110 PROB30 2321/2401 VRB20G35KT
      -TSRA BKN070CB
     FM240300 15008KT P6SM SCT120 BKN200=



000
FTUS45 KBOU 231101 AAB
TAFAPA
TAF AMD
KAPA 231101Z 2311/2406 23010KT P6SM FEW220
     FM231500 VRB05KT P6SM SCT200
     FM231900 15006KT P6SM FEW080 SCT120 BKN200
     FM232100 24012KT P6SM SCT070 BKN110 PROB30 2321/2401 VRB20G35KT
      -TSRA BKN070CB
     FM240300 15008KT P6SM SCT120 BKN200=



000
FTUS45 KBOU 231101 AAB
TAFAPA
TAF AMD
KAPA 231101Z 2311/2406 23010KT P6SM FEW220
     FM231500 VRB05KT P6SM SCT200
     FM231900 15006KT P6SM FEW080 SCT120 BKN200
     FM232100 24012KT P6SM SCT070 BKN110 PROB30 2321/2401 VRB20G35KT
      -TSRA BKN070CB
     FM240300 15008KT P6SM SCT120 BKN200=



000
FTUS45 KBOU 231101 AAB
TAFAPA
TAF AMD
KAPA 231101Z 2311/2406 23010KT P6SM FEW220
     FM231500 VRB05KT P6SM SCT200
     FM231900 15006KT P6SM FEW080 SCT120 BKN200
     FM232100 24012KT P6SM SCT070 BKN110 PROB30 2321/2401 VRB20G35KT
      -TSRA BKN070CB
     FM240300 15008KT P6SM SCT120 BKN200=



000
FTUS45 KBOU 231100 AAE
TAFDEN
TAF AMD
KDEN 231100Z 2311/2412 23009KT P6SM SCT150 BKN220
     FM231200 22008KT P6SM FEW150 SCT220
     FM231500 VRB05KT P6SM SCT200
     FM231900 12006KT P6SM FEW080 SCT120 BKN200
     FM232100 24012KT P6SM SCT070 BKN110 PROB30 2321/2401 VRB20G35KT
      -TSRA BKN070CB
     FM240300 15008KT P6SM SCT120 BKN200
     FM240600 21008KT P6SM FEW140 SCT200=



000
FTUS45 KBOU 231100 AAE
TAFDEN
TAF AMD
KDEN 231100Z 2311/2412 23009KT P6SM SCT150 BKN220
     FM231200 22008KT P6SM FEW150 SCT220
     FM231500 VRB05KT P6SM SCT200
     FM231900 12006KT P6SM FEW080 SCT120 BKN200
     FM232100 24012KT P6SM SCT070 BKN110 PROB30 2321/2401 VRB20G35KT
      -TSRA BKN070CB
     FM240300 15008KT P6SM SCT120 BKN200
     FM240600 21008KT P6SM FEW140 SCT200=



000
FTUS45 KBOU 231100 AAE
TAFDEN
TAF AMD
KDEN 231100Z 2311/2412 23009KT P6SM SCT150 BKN220
     FM231200 22008KT P6SM FEW150 SCT220
     FM231500 VRB05KT P6SM SCT200
     FM231900 12006KT P6SM FEW080 SCT120 BKN200
     FM232100 24012KT P6SM SCT070 BKN110 PROB30 2321/2401 VRB20G35KT
      -TSRA BKN070CB
     FM240300 15008KT P6SM SCT120 BKN200
     FM240600 21008KT P6SM FEW140 SCT200=



000
FTUS45 KBOU 231005 AAD
TAFDEN
TAF AMD
KDEN 231005Z 2310/2412 28009KT P6SM BKN150 BKN200
     FM231200 24008KT P6SM SCT150 BKN200
     FM231500 VRB05KT P6SM SCT200
     FM231900 12006KT P6SM FEW080 SCT120 BKN200
     FM232100 24012KT P6SM SCT070 BKN110 PROB30 2321/2401 VRB20G35KT
      -TSRA BKN070CB
     FM240300 15008KT P6SM SCT120 BKN200
     FM240600 21008KT P6SM FEW140 SCT200=



000
FTUS45 KBOU 231005 AAD
TAFDEN
TAF AMD
KDEN 231005Z 2310/2412 28009KT P6SM BKN150 BKN200
     FM231200 24008KT P6SM SCT150 BKN200
     FM231500 VRB05KT P6SM SCT200
     FM231900 12006KT P6SM FEW080 SCT120 BKN200
     FM232100 24012KT P6SM SCT070 BKN110 PROB30 2321/2401 VRB20G35KT
      -TSRA BKN070CB
     FM240300 15008KT P6SM SCT120 BKN200
     FM240600 21008KT P6SM FEW140 SCT200=



000
FTUS45 KBOU 230901 AAC
TAFDEN
TAF AMD
KDEN 230901Z 2309/2412 21011KT P6SM BKN120 BKN200
     FM231000 21009KT P6SM SCT120 BKN200
     FM231500 VRB05KT P6SM SCT200
     FM231900 12006KT P6SM FEW080 SCT120 BKN200
     FM232100 24012KT P6SM SCT070 BKN110 PROB30 2321/2401 VRB20G35KT
      -TSRA BKN070CB
     FM240300 15008KT P6SM SCT120 BKN200
     FM240600 21008KT P6SM FEW140 SCT200=



000
FTUS45 KBOU 230802 AAA
TAFBJC
TAF AMD
KBJC 230802Z 2308/2406 27008KT P6SM SCT110
      TEMPO 2308/2310 BKN110
     FM231500 VRB05KT P6SM SCT200
     FM231900 08006KT P6SM FEW080 SCT120 BKN200
     FM232100 28015KT P6SM SCT070 BKN110 PROB30 2321/2401 VRB20G35KT
      -TSRA BKN070CB
     FM240300 26012KT P6SM SCT120 BKN200=



000
FTUS45 KBOU 230801 AAA
TAFAPA
TAF AMD
KAPA 230801Z 2308/2406 23012G20KT P6SM FEW090 SCT120 BKN200
     FM231000 20008KT P6SM FEW120 SCT200
     FM231500 VRB05KT P6SM SCT200
     FM231900 15006KT P6SM FEW080 SCT120 BKN200
     FM232100 24012KT P6SM SCT070 BKN110 PROB30 2321/2401 VRB20G35KT
      -TSRA BKN070CB
     FM240300 15008KT P6SM SCT120 BKN200=



000
FTUS45 KBOU 230801 AAA
TAFAPA
TAF AMD
KAPA 230801Z 2308/2406 23012G20KT P6SM FEW090 SCT120 BKN200
     FM231000 20008KT P6SM FEW120 SCT200
     FM231500 VRB05KT P6SM SCT200
     FM231900 15006KT P6SM FEW080 SCT120 BKN200
     FM232100 24012KT P6SM SCT070 BKN110 PROB30 2321/2401 VRB20G35KT
      -TSRA BKN070CB
     FM240300 15008KT P6SM SCT120 BKN200=



000
FTUS45 KBOU 230800 AAB
TAFDEN
TAF AMD
KDEN 230800Z 2308/2412 23014KT P6SM FEW090 BKN110 BKN150
     FM231000 21009KT P6SM SCT150 SCT200
     FM231500 VRB05KT P6SM SCT200
     FM231900 12006KT P6SM FEW080 SCT120 BKN200
     FM232100 24012KT P6SM SCT070 BKN110 PROB30 2321/2401 VRB20G35KT
      -TSRA BKN070CB
     FM240300 15008KT P6SM SCT120 BKN200
     FM240600 21008KT P6SM FEW140 SCT200=



000
FTUS45 KBOU 230800 AAB
TAFDEN
TAF AMD
KDEN 230800Z 2308/2412 23014KT P6SM FEW090 BKN110 BKN150
     FM231000 21009KT P6SM SCT150 SCT200
     FM231500 VRB05KT P6SM SCT200
     FM231900 12006KT P6SM FEW080 SCT120 BKN200
     FM232100 24012KT P6SM SCT070 BKN110 PROB30 2321/2401 VRB20G35KT
      -TSRA BKN070CB
     FM240300 15008KT P6SM SCT120 BKN200
     FM240600 21008KT P6SM FEW140 SCT200=



000
FTUS45 KBOU 230557 AAA
TAFDEN
TAF AMD
KDEN 230557Z 2306/2412 20014G22KT P6SM FEW090 BKN150 BKN200
     FM230800 21009KT P6SM SCT150 SCT200
     FM231500 VRB05KT P6SM SCT200
     FM231900 12006KT P6SM FEW080 SCT120 BKN200
     FM232100 24012KT P6SM SCT070 BKN110 PROB30 2321/2401 VRB20G35KT
      -TSRA BKN070CB
     FM240300 15008KT P6SM SCT120 BKN200
     FM240600 21008KT P6SM FEW140 SCT200=



000
FTUS45 KBOU 230557 AAA
TAFDEN
TAF AMD
KDEN 230557Z 2306/2412 20014G22KT P6SM FEW090 BKN150 BKN200
     FM230800 21009KT P6SM SCT150 SCT200
     FM231500 VRB05KT P6SM SCT200
     FM231900 12006KT P6SM FEW080 SCT120 BKN200
     FM232100 24012KT P6SM SCT070 BKN110 PROB30 2321/2401 VRB20G35KT
      -TSRA BKN070CB
     FM240300 15008KT P6SM SCT120 BKN200
     FM240600 21008KT P6SM FEW140 SCT200=



000
FTUS45 KBOU 230557 AAA
TAFDEN
TAF AMD
KDEN 230557Z 2306/2412 20014G22KT P6SM FEW090 BKN150 BKN200
     FM230800 21009KT P6SM SCT150 SCT200
     FM231500 VRB05KT P6SM SCT200
     FM231900 12006KT P6SM FEW080 SCT120 BKN200
     FM232100 24012KT P6SM SCT070 BKN110 PROB30 2321/2401 VRB20G35KT
      -TSRA BKN070CB
     FM240300 15008KT P6SM SCT120 BKN200
     FM240600 21008KT P6SM FEW140 SCT200=



000
FTUS45 KBOU 230557 AAA
TAFDEN
TAF AMD
KDEN 230557Z 2306/2412 20014G22KT P6SM FEW090 BKN150 BKN200
     FM230800 21009KT P6SM SCT150 SCT200
     FM231500 VRB05KT P6SM SCT200
     FM231900 12006KT P6SM FEW080 SCT120 BKN200
     FM232100 24012KT P6SM SCT070 BKN110 PROB30 2321/2401 VRB20G35KT
      -TSRA BKN070CB
     FM240300 15008KT P6SM SCT120 BKN200
     FM240600 21008KT P6SM FEW140 SCT200=



000
FTUS45 KBOU 230524
TAFAPA
TAF
KAPA 230524Z 2306/2406 24012G20KT P6SM VCSH BKN070 BKN090
     FM230800 19008KT P6SM SCT090 SCT200
     FM231500 VRB05KT P6SM SCT200
     FM231900 15006KT P6SM FEW080 SCT120 BKN200
     FM232100 24012KT P6SM SCT070 BKN110 PROB30 2321/2401 VRB20G35KT
      -TSRA BKN070CB
     FM240300 15008KT P6SM SCT120 BKN200=



000
FTUS45 KBOU 230524
TAFBJC
TAF
KBJC 230524Z 2306/2406 18012KT P6SM FEW070 BKN100 BKN140
     FM230800 24008KT P6SM SCT140 SCT200
     FM231500 VRB05KT P6SM SCT200
     FM231900 08006KT P6SM FEW080 SCT120 BKN200
     FM232100 28015KT P6SM SCT070 BKN110 PROB30 2321/2401 VRB20G35KT
      -TSRA BKN070CB
     FM240300 26012KT P6SM SCT120 BKN200=



000
FTUS45 KBOU 230524
TAFDEN
TAF
KDEN 230524Z 2306/2412 20011G18KT P6SM FEW070 BKN120 BKN200
     FM230800 21009KT P6SM SCT120 SCT200
     FM231500 VRB05KT P6SM SCT200
     FM231900 12006KT P6SM FEW080 SCT120 BKN200
     FM232100 24012KT P6SM SCT070 BKN110 PROB30 2321/2401 VRB20G35KT
      -TSRA BKN070CB
     FM240300 15008KT P6SM SCT120 BKN200
     FM240600 21008KT P6SM FEW140 SCT200=



000
FTUS45 KBOU 230524
TAFDEN
TAF
KDEN 230524Z 2306/2412 20011G18KT P6SM FEW070 BKN120 BKN200
     FM230800 21009KT P6SM SCT120 SCT200
     FM231500 VRB05KT P6SM SCT200
     FM231900 12006KT P6SM FEW080 SCT120 BKN200
     FM232100 24012KT P6SM SCT070 BKN110 PROB30 2321/2401 VRB20G35KT
      -TSRA BKN070CB
     FM240300 15008KT P6SM SCT120 BKN200
     FM240600 21008KT P6SM FEW140 SCT200=



000
FTUS45 KBOU 230524
TAFAPA
TAF
KAPA 230524Z 2306/2406 24012G20KT P6SM VCSH BKN070 BKN090
     FM230800 19008KT P6SM SCT090 SCT200
     FM231500 VRB05KT P6SM SCT200
     FM231900 15006KT P6SM FEW080 SCT120 BKN200
     FM232100 24012KT P6SM SCT070 BKN110 PROB30 2321/2401 VRB20G35KT
      -TSRA BKN070CB
     FM240300 15008KT P6SM SCT120 BKN200=



000
FTUS45 KBOU 230524
TAFBJC
TAF
KBJC 230524Z 2306/2406 18012KT P6SM FEW070 BKN100 BKN140
     FM230800 24008KT P6SM SCT140 SCT200
     FM231500 VRB05KT P6SM SCT200
     FM231900 08006KT P6SM FEW080 SCT120 BKN200
     FM232100 28015KT P6SM SCT070 BKN110 PROB30 2321/2401 VRB20G35KT
      -TSRA BKN070CB
     FM240300 26012KT P6SM SCT120 BKN200=



000
FTUS45 KBOU 230524
TAFBJC
TAF
KBJC 230524Z 2306/2406 18012KT P6SM FEW070 BKN100 BKN140
     FM230800 24008KT P6SM SCT140 SCT200
     FM231500 VRB05KT P6SM SCT200
     FM231900 08006KT P6SM FEW080 SCT120 BKN200
     FM232100 28015KT P6SM SCT070 BKN110 PROB30 2321/2401 VRB20G35KT
      -TSRA BKN070CB
     FM240300 26012KT P6SM SCT120 BKN200=



000
FTUS45 KBOU 230524
TAFDEN
TAF
KDEN 230524Z 2306/2412 20011G18KT P6SM FEW070 BKN120 BKN200
     FM230800 21009KT P6SM SCT120 SCT200
     FM231500 VRB05KT P6SM SCT200
     FM231900 12006KT P6SM FEW080 SCT120 BKN200
     FM232100 24012KT P6SM SCT070 BKN110 PROB30 2321/2401 VRB20G35KT
      -TSRA BKN070CB
     FM240300 15008KT P6SM SCT120 BKN200
     FM240600 21008KT P6SM FEW140 SCT200=



000
FTUS45 KBOU 230524
TAFAPA
TAF
KAPA 230524Z 2306/2406 24012G20KT P6SM VCSH BKN070 BKN090
     FM230800 19008KT P6SM SCT090 SCT200
     FM231500 VRB05KT P6SM SCT200
     FM231900 15006KT P6SM FEW080 SCT120 BKN200
     FM232100 24012KT P6SM SCT070 BKN110 PROB30 2321/2401 VRB20G35KT
      -TSRA BKN070CB
     FM240300 15008KT P6SM SCT120 BKN200=



000
FTUS45 KBOU 230524
TAFDEN
TAF
KDEN 230524Z 2306/2412 20011G18KT P6SM FEW070 BKN120 BKN200
     FM230800 21009KT P6SM SCT120 SCT200
     FM231500 VRB05KT P6SM SCT200
     FM231900 12006KT P6SM FEW080 SCT120 BKN200
     FM232100 24012KT P6SM SCT070 BKN110 PROB30 2321/2401 VRB20G35KT
      -TSRA BKN070CB
     FM240300 15008KT P6SM SCT120 BKN200
     FM240600 21008KT P6SM FEW140 SCT200=



000
FTUS45 KBOU 230524
TAFAPA
TAF
KAPA 230524Z 2306/2406 24012G20KT P6SM VCSH BKN070 BKN090
     FM230800 19008KT P6SM SCT090 SCT200
     FM231500 VRB05KT P6SM SCT200
     FM231900 15006KT P6SM FEW080 SCT120 BKN200
     FM232100 24012KT P6SM SCT070 BKN110 PROB30 2321/2401 VRB20G35KT
      -TSRA BKN070CB
     FM240300 15008KT P6SM SCT120 BKN200=



000
FTUS45 KBOU 230524
TAFBJC
TAF
KBJC 230524Z 2306/2406 18012KT P6SM FEW070 BKN100 BKN140
     FM230800 24008KT P6SM SCT140 SCT200
     FM231500 VRB05KT P6SM SCT200
     FM231900 08006KT P6SM FEW080 SCT120 BKN200
     FM232100 28015KT P6SM SCT070 BKN110 PROB30 2321/2401 VRB20G35KT
      -TSRA BKN070CB
     FM240300 26012KT P6SM SCT120 BKN200=



000
FTUS45 KBOU 230425 AAB
TAFBJC
TAF AMD
KBJC 230425Z 2304/2324 24014G20KT P6SM SCT090 BKN110
     FM230700 30008KT P6SM FEW100 SCT220
     FM231500 VRB05KT P6SM SCT220
     FM231900 05006KT P6SM FEW080 SCT120 BKN220 PROB30 2321/2324
      VRB20G36KT -TSRA BKN070CB=



000
FTUS45 KBOU 230424 AAB
TAFAPA
TAF AMD
KAPA 230424Z 2304/2324 23012KT P6SM FEW040 BKN070 OVC100
     FM230700 20007KT P6SM FEW100 SCT220
     FM231500 VRB05KT P6SM SCT220
     FM231900 05006KT P6SM FEW080 SCT120 BKN220 PROB30 2321/2324
      VRB20G36KT -TSRA BKN070CB=



000
FTUS45 KBOU 230424 AAB
TAFAPA
TAF AMD
KAPA 230424Z 2304/2324 23012KT P6SM FEW040 BKN070 OVC100
     FM230700 20007KT P6SM FEW100 SCT220
     FM231500 VRB05KT P6SM SCT220
     FM231900 05006KT P6SM FEW080 SCT120 BKN220 PROB30 2321/2324
      VRB20G36KT -TSRA BKN070CB=



000
FTUS45 KBOU 230424 AAB
TAFAPA
TAF AMD
KAPA 230424Z 2304/2324 23012KT P6SM FEW040 BKN070 OVC100
     FM230700 20007KT P6SM FEW100 SCT220
     FM231500 VRB05KT P6SM SCT220
     FM231900 05006KT P6SM FEW080 SCT120 BKN220 PROB30 2321/2324
      VRB20G36KT -TSRA BKN070CB=



000
FTUS45 KBOU 230424 AAB
TAFAPA
TAF AMD
KAPA 230424Z 2304/2324 23012KT P6SM FEW040 BKN070 OVC100
     FM230700 20007KT P6SM FEW100 SCT220
     FM231500 VRB05KT P6SM SCT220
     FM231900 05006KT P6SM FEW080 SCT120 BKN220 PROB30 2321/2324
      VRB20G36KT -TSRA BKN070CB=



000
FTUS45 KBOU 230423 AAD
TAFDEN
TAF AMD
KDEN 230423Z 2304/2406 18012KT P6SM FEW100 BKN140 BKN220
     FM230600 21008KT P6SM FEW100 SCT220
     FM231500 VRB05KT P6SM SCT220
     FM231900 05006KT P6SM FEW080 SCT120 BKN220 PROB30 2321/2401
      VRB20G36KT -TSRA BKN070CB=



000
FTUS45 KBOU 230423 AAD
TAFDEN
TAF AMD
KDEN 230423Z 2304/2406 18012KT P6SM FEW100 BKN140 BKN220
     FM230600 21008KT P6SM FEW100 SCT220
     FM231500 VRB05KT P6SM SCT220
     FM231900 05006KT P6SM FEW080 SCT120 BKN220 PROB30 2321/2401
      VRB20G36KT -TSRA BKN070CB=



000
FTUS45 KBOU 230308 AAA
TAFBJC
TAF AMD
KBJC 230308Z 2303/2324 21014KT P6SM SCT070 BKN120
     FM230400 VRB05KT P6SM FEW060 SCT110 BKN220
     FM230700 30005KT P6SM FEW100 SCT220
     FM231500 VRB05KT P6SM SCT220
     FM231900 05006KT P6SM FEW080 SCT120 BKN220 PROB30 2321/2324
      VRB20G36KT -TSRA BKN070CB=



000
FTUS45 KBOU 230308 AAC
TAFDEN
TAF AMD
KDEN 230308Z 2303/2406 22013KT P6SM FEW100 BKN140 BKN220
     FM230500 21008KT P6SM FEW100 SCT220
     FM231500 VRB05KT P6SM SCT220
     FM231900 05006KT P6SM FEW080 SCT120 BKN220 PROB30 2321/2401
      VRB20G36KT -TSRA BKN070CB=



000
FTUS45 KBOU 230308 AAA
TAFAPA
TAF AMD
KAPA 230308Z 2303/2324 17008KT P6SM FEW070 BKN090 OVC220
      TEMPO 2303/2304 VRB14G26KT
     FM230700 20007KT P6SM FEW100 SCT220
     FM231500 VRB05KT P6SM SCT220
     FM231900 05006KT P6SM FEW080 SCT120 BKN220 PROB30 2321/2324
      VRB20G36KT -TSRA BKN070CB=



000
FTUS45 KBOU 230308 AAC
TAFDEN
TAF AMD
KDEN 230308Z 2303/2406 22013KT P6SM FEW100 BKN140 BKN220
     FM230500 21008KT P6SM FEW100 SCT220
     FM231500 VRB05KT P6SM SCT220
     FM231900 05006KT P6SM FEW080 SCT120 BKN220 PROB30 2321/2401
      VRB20G36KT -TSRA BKN070CB=



000
FTUS45 KBOU 230308 AAA
TAFAPA
TAF AMD
KAPA 230308Z 2303/2324 17008KT P6SM FEW070 BKN090 OVC220
      TEMPO 2303/2304 VRB14G26KT
     FM230700 20007KT P6SM FEW100 SCT220
     FM231500 VRB05KT P6SM SCT220
     FM231900 05006KT P6SM FEW080 SCT120 BKN220 PROB30 2321/2324
      VRB20G36KT -TSRA BKN070CB=



000
FTUS45 KBOU 230308 AAA
TAFBJC
TAF AMD
KBJC 230308Z 2303/2324 21014KT P6SM SCT070 BKN120
     FM230400 VRB05KT P6SM FEW060 SCT110 BKN220
     FM230700 30005KT P6SM FEW100 SCT220
     FM231500 VRB05KT P6SM SCT220
     FM231900 05006KT P6SM FEW080 SCT120 BKN220 PROB30 2321/2324
      VRB20G36KT -TSRA BKN070CB=



000
FTUS45 KBOU 230308 AAA
TAFBJC
TAF AMD
KBJC 230308Z 2303/2324 21014KT P6SM SCT070 BKN120
     FM230400 VRB05KT P6SM FEW060 SCT110 BKN220
     FM230700 30005KT P6SM FEW100 SCT220
     FM231500 VRB05KT P6SM SCT220
     FM231900 05006KT P6SM FEW080 SCT120 BKN220 PROB30 2321/2324
      VRB20G36KT -TSRA BKN070CB=



000
FTUS45 KBOU 230308 AAA
TAFAPA
TAF AMD
KAPA 230308Z 2303/2324 17008KT P6SM FEW070 BKN090 OVC220
      TEMPO 2303/2304 VRB14G26KT
     FM230700 20007KT P6SM FEW100 SCT220
     FM231500 VRB05KT P6SM SCT220
     FM231900 05006KT P6SM FEW080 SCT120 BKN220 PROB30 2321/2324
      VRB20G36KT -TSRA BKN070CB=



000
FTUS45 KBOU 230308 AAC
TAFDEN
TAF AMD
KDEN 230308Z 2303/2406 22013KT P6SM FEW100 BKN140 BKN220
     FM230500 21008KT P6SM FEW100 SCT220
     FM231500 VRB05KT P6SM SCT220
     FM231900 05006KT P6SM FEW080 SCT120 BKN220 PROB30 2321/2401
      VRB20G36KT -TSRA BKN070CB=



000
FTUS45 KBOU 230308 AAC
TAFDEN
TAF AMD
KDEN 230308Z 2303/2406 22013KT P6SM FEW100 BKN140 BKN220
     FM230500 21008KT P6SM FEW100 SCT220
     FM231500 VRB05KT P6SM SCT220
     FM231900 05006KT P6SM FEW080 SCT120 BKN220 PROB30 2321/2401
      VRB20G36KT -TSRA BKN070CB=



000
FTUS45 KBOU 230308 AAA
TAFBJC
TAF AMD
KBJC 230308Z 2303/2324 21014KT P6SM SCT070 BKN120
     FM230400 VRB05KT P6SM FEW060 SCT110 BKN220
     FM230700 30005KT P6SM FEW100 SCT220
     FM231500 VRB05KT P6SM SCT220
     FM231900 05006KT P6SM FEW080 SCT120 BKN220 PROB30 2321/2324
      VRB20G36KT -TSRA BKN070CB=



000
FTUS45 KBOU 230308 AAA
TAFAPA
TAF AMD
KAPA 230308Z 2303/2324 17008KT P6SM FEW070 BKN090 OVC220
      TEMPO 2303/2304 VRB14G26KT
     FM230700 20007KT P6SM FEW100 SCT220
     FM231500 VRB05KT P6SM SCT220
     FM231900 05006KT P6SM FEW080 SCT120 BKN220 PROB30 2321/2324
      VRB20G36KT -TSRA BKN070CB=



000
FTUS45 KBOU 230222 AAB
TAFDEN
TAF AMD
KDEN 230222Z 2302/2406 18012KT P6SM SCT100 BKN140 BKN220
     FM230500 21007KT P6SM FEW100 SCT220
     FM231500 VRB05KT P6SM SCT220
     FM231900 05006KT P6SM FEW080 SCT120 BKN220 PROB30 2321/2401
      VRB20G36KT -TSRA BKN070CB=



000
FTUS45 KBOU 230222 AAB
TAFDEN
TAF AMD
KDEN 230222Z 2302/2406 18012KT P6SM SCT100 BKN140 BKN220
     FM230500 21007KT P6SM FEW100 SCT220
     FM231500 VRB05KT P6SM SCT220
     FM231900 05006KT P6SM FEW080 SCT120 BKN220 PROB30 2321/2401
      VRB20G36KT -TSRA BKN070CB=



000
FTUS45 KBOU 230042 AAA
TAFDEN
TAF AMD
KDEN 230042Z 2301/2406 19014G24KT P6SM VCSH BKN080
     FM230200 20012KT P6SM FEW070 SCT110 BKN220
     FM230700 21007KT P6SM FEW100 SCT220
     FM231500 VRB05KT P6SM SCT220
     FM231900 05006KT P6SM FEW080 SCT120 BKN220 PROB30 2321/2401
      VRB20G36KT -TSRA BKN070CB=



000
FTUS45 KBOU 230042 AAA
TAFDEN
TAF AMD
KDEN 230042Z 2301/2406 19014G24KT P6SM VCSH BKN080
     FM230200 20012KT P6SM FEW070 SCT110 BKN220
     FM230700 21007KT P6SM FEW100 SCT220
     FM231500 VRB05KT P6SM SCT220
     FM231900 05006KT P6SM FEW080 SCT120 BKN220 PROB30 2321/2401
      VRB20G36KT -TSRA BKN070CB=



000
FTUS45 KBOU 222340
TAFDEN
TAF
KDEN 222340Z 2300/2406 19011G20KT P6SM VCSH SCT070 BKN100 BKN220
      TEMPO 2300/2301 VRB15G32KT BKN070
     FM230200 20010KT P6SM FEW070 SCT110 BKN220
     FM230700 21007KT P6SM FEW100 SCT220
     FM231500 VRB05KT P6SM SCT220
     FM231900 05006KT P6SM FEW080 SCT120 BKN220 PROB30 2321/2401
      VRB20G36KT -TSRA BKN070CB=



000
FTUS45 KBOU 222340
TAFAPA
TAF
KAPA 222340Z 2300/2324 17010KT P6SM -TSRA SCT070CB BKN100 OVC220
      TEMPO 2300/2301 VRB15G32KT
     FM230200 19008KT P6SM FEW070 SCT110 BKN220
     FM230700 20007KT P6SM FEW100 SCT220
     FM231500 VRB05KT P6SM SCT220
     FM231900 05006KT P6SM FEW080 SCT120 BKN220 PROB30 2321/2324
      VRB20G36KT -TSRA BKN070CB=



000
FTUS45 KBOU 222340
TAFBJC
TAF
KBJC 222340Z 2300/2324 27008KT P6SM VCSH SCT060 BKN110
     FM230200 VRB05KT P6SM FEW060 SCT110 BKN220
     FM230700 30005KT P6SM FEW100 SCT220
     FM231500 VRB05KT P6SM SCT220
     FM231900 05006KT P6SM FEW080 SCT120 BKN220 PROB30 2321/2324
      VRB20G36KT -TSRA BKN070CB=



000
FTUS45 KBOU 222340
TAFDEN
TAF
KDEN 222340Z 2300/2406 19011G20KT P6SM VCSH SCT070 BKN100 BKN220
      TEMPO 2300/2301 VRB15G32KT BKN070
     FM230200 20010KT P6SM FEW070 SCT110 BKN220
     FM230700 21007KT P6SM FEW100 SCT220
     FM231500 VRB05KT P6SM SCT220
     FM231900 05006KT P6SM FEW080 SCT120 BKN220 PROB30 2321/2401
      VRB20G36KT -TSRA BKN070CB=



000
FTUS45 KBOU 222340
TAFAPA
TAF
KAPA 222340Z 2300/2324 17010KT P6SM -TSRA SCT070CB BKN100 OVC220
      TEMPO 2300/2301 VRB15G32KT
     FM230200 19008KT P6SM FEW070 SCT110 BKN220
     FM230700 20007KT P6SM FEW100 SCT220
     FM231500 VRB05KT P6SM SCT220
     FM231900 05006KT P6SM FEW080 SCT120 BKN220 PROB30 2321/2324
      VRB20G36KT -TSRA BKN070CB=



000
FTUS45 KBOU 222340
TAFBJC
TAF
KBJC 222340Z 2300/2324 27008KT P6SM VCSH SCT060 BKN110
     FM230200 VRB05KT P6SM FEW060 SCT110 BKN220
     FM230700 30005KT P6SM FEW100 SCT220
     FM231500 VRB05KT P6SM SCT220
     FM231900 05006KT P6SM FEW080 SCT120 BKN220 PROB30 2321/2324
      VRB20G36KT -TSRA BKN070CB=



000
FTUS45 KBOU 222307 AAB
TAFAPA
TAF AMD
KAPA 222307Z 2223/2318 15013KT P6SM SCT090 SCT140
      TEMPO 2223/2301 VRB15G32KT -TSRA BKN060CB
     FM230100 VRB05KT P6SM FEW070 BKN120
     FM230300 20008KT P6SM FEW080 SCT120=



000
FTUS45 KBOU 222307 AAB
TAFAPA
TAF AMD
KAPA 222307Z 2223/2318 15013KT P6SM SCT090 SCT140
      TEMPO 2223/2301 VRB15G32KT -TSRA BKN060CB
     FM230100 VRB05KT P6SM FEW070 BKN120
     FM230300 20008KT P6SM FEW080 SCT120=



000
FTUS45 KBOU 222236 AAB
TAFDEN
TAF AMD
KDEN 222236Z 2223/2324 36009KT P6SM VCTS SCT080CB BKN120 BKN200
      TEMPO 2223/2224 VRB20G30KT BKN070CB
     FM230000 15010G18KT P6SM VCSH FEW080 SCT120
     FM232100 26008KT P6SM SCT080 BKN110 PROB30 2321/2324 VRB20G30KT
      -TSRA BKN070CB=



000
FTUS45 KBOU 222236 AAB
TAFDEN
TAF AMD
KDEN 222236Z 2223/2324 36009KT P6SM VCTS SCT080CB BKN120 BKN200
      TEMPO 2223/2224 VRB20G30KT BKN070CB
     FM230000 15010G18KT P6SM VCSH FEW080 SCT120
     FM232100 26008KT P6SM SCT080 BKN110 PROB30 2321/2324 VRB20G30KT
      -TSRA BKN070CB=



000
FTUS45 KBOU 222236 AAB
TAFDEN
TAF AMD
KDEN 222236Z 2223/2324 36009KT P6SM VCTS SCT080CB BKN120 BKN200
      TEMPO 2223/2224 VRB20G30KT BKN070CB
     FM230000 15010G18KT P6SM VCSH FEW080 SCT120
     FM232100 26008KT P6SM SCT080 BKN110 PROB30 2321/2324 VRB20G30KT
      -TSRA BKN070CB=



000
FTUS45 KBOU 222223 AAA
TAFAPA
TAF AMD
KAPA 222223Z 2222/2318 13012KT P6SM VCTS SCT080CB SCT120
      TEMPO 2223/2301 VRB20G30KT
     FM230100 VRB05KT P6SM FEW070 BKN120
     FM230300 20008KT P6SM FEW080 SCT120=



000
FTUS45 KBOU 222223 AAA
TAFBJC
TAF AMD
KBJC 222223Z 2222/2318 26014G24KT P6SM SCT070 BKN110
      TEMPO 2222/2223 -SHRA BKN070
     FM230300 26007KT P6SM FEW080 SCT120
     FM231400 VRB04KT P6SM SCT110=



000
FTUS45 KBOU 222223 AAA
TAFAPA
TAF AMD
KAPA 222223Z 2222/2318 13012KT P6SM VCTS SCT080CB SCT120
      TEMPO 2223/2301 VRB20G30KT
     FM230100 VRB05KT P6SM FEW070 BKN120
     FM230300 20008KT P6SM FEW080 SCT120=



000
FTUS45 KBOU 222223 AAA
TAFBJC
TAF AMD
KBJC 222223Z 2222/2318 26014G24KT P6SM SCT070 BKN110
      TEMPO 2222/2223 -SHRA BKN070
     FM230300 26007KT P6SM FEW080 SCT120
     FM231400 VRB04KT P6SM SCT110=



000
FTUS45 KBOU 222102 AAA
TAFDEN
TAF AMD
KDEN 222102Z 2221/2324 04007KT P6SM SCT080 SCT120 BKN200
     FM222300 35008KT P6SM VCTS SCT070CB BKN120
      TEMPO 2223/2301 VRB20G30KT
     FM230100 VRB05KT P6SM FEW080 BKN110
     FM230300 21009KT P6SM FEW080 SCT120
     FM232100 26008KT P6SM SCT080 BKN110 PROB30 2321/2324 VRB20G30KT
      -TSRA BKN070CB=



000
FTUS45 KBOU 222102 AAA
TAFDEN
TAF AMD
KDEN 222102Z 2221/2324 04007KT P6SM SCT080 SCT120 BKN200
     FM222300 35008KT P6SM VCTS SCT070CB BKN120
      TEMPO 2223/2301 VRB20G30KT
     FM230100 VRB05KT P6SM FEW080 BKN110
     FM230300 21009KT P6SM FEW080 SCT120
     FM232100 26008KT P6SM SCT080 BKN110 PROB30 2321/2324 VRB20G30KT
      -TSRA BKN070CB=



000
FTUS45 KBOU 222102 AAA
TAFDEN
TAF AMD
KDEN 222102Z 2221/2324 04007KT P6SM SCT080 SCT120 BKN200
     FM222300 35008KT P6SM VCTS SCT070CB BKN120
      TEMPO 2223/2301 VRB20G30KT
     FM230100 VRB05KT P6SM FEW080 BKN110
     FM230300 21009KT P6SM FEW080 SCT120
     FM232100 26008KT P6SM SCT080 BKN110 PROB30 2321/2324 VRB20G30KT
      -TSRA BKN070CB=



000
FTUS45 KBOU 222102 AAA
TAFDEN
TAF AMD
KDEN 222102Z 2221/2324 04007KT P6SM SCT080 SCT120 BKN200
     FM222300 35008KT P6SM VCTS SCT070CB BKN120
      TEMPO 2223/2301 VRB20G30KT
     FM230100 VRB05KT P6SM FEW080 BKN110
     FM230300 21009KT P6SM FEW080 SCT120
     FM232100 26008KT P6SM SCT080 BKN110 PROB30 2321/2324 VRB20G30KT
      -TSRA BKN070CB=



000
FTUS45 KBOU 221731
TAFAPA
TAF
KAPA 221731Z 2218/2318 VRB04KT P6SM FEW080 SCT120
     FM222200 34007KT P6SM VCTS SCT060CB BKN100
      TEMPO 2223/2301 VRB20G30KT
     FM230100 VRB05KT P6SM FEW070 BKN120
     FM230300 20008KT P6SM FEW080 SCT120=



000
FTUS45 KBOU 221731
TAFDEN
TAF
KDEN 221731Z 2218/2324 VRB04KT P6SM FEW080 SCT120
     FM222000 32006KT P6SM SCT080 SCT120
     FM222300 35008KT P6SM VCTS SCT070CB BKN120
      TEMPO 2223/2301 VRB20G30KT
     FM230100 VRB05KT P6SM FEW080 BKN110
     FM230300 21009KT P6SM FEW080 SCT120
     FM232100 26008KT P6SM SCT080 BKN110 PROB30 2321/2324 VRB20G30KT
      -TSRA BKN070CB=



000
FTUS45 KBOU 221731
TAFBJC
TAF
KBJC 221731Z 2218/2318 VRB05KT P6SM FEW080 SCT120
     FM222100 34007KT P6SM SCT070 BKN110
     FM230300 26007KT P6SM FEW080 SCT120
     FM231400 VRB04KT P6SM SCT110=



000
FTUS45 KBOU 221731
TAFBJC
TAF
KBJC 221731Z 2218/2318 VRB05KT P6SM FEW080 SCT120
     FM222100 34007KT P6SM SCT070 BKN110
     FM230300 26007KT P6SM FEW080 SCT120
     FM231400 VRB04KT P6SM SCT110=



000
FTUS45 KBOU 221731
TAFAPA
TAF
KAPA 221731Z 2218/2318 VRB04KT P6SM FEW080 SCT120
     FM222200 34007KT P6SM VCTS SCT060CB BKN100
      TEMPO 2223/2301 VRB20G30KT
     FM230100 VRB05KT P6SM FEW070 BKN120
     FM230300 20008KT P6SM FEW080 SCT120=



000
FTUS45 KBOU 221731
TAFDEN
TAF
KDEN 221731Z 2218/2324 VRB04KT P6SM FEW080 SCT120
     FM222000 32006KT P6SM SCT080 SCT120
     FM222300 35008KT P6SM VCTS SCT070CB BKN120
      TEMPO 2223/2301 VRB20G30KT
     FM230100 VRB05KT P6SM FEW080 BKN110
     FM230300 21009KT P6SM FEW080 SCT120
     FM232100 26008KT P6SM SCT080 BKN110 PROB30 2321/2324 VRB20G30KT
      -TSRA BKN070CB=



    US Dept of Commerce
    National Oceanic and Atmospheric Administration
    National Weather Service
    1325 East West Highway
    Silver Spring, MD 20910
    Page Author: NWS Internet Services Team
Disclaimer
Information Quality
Credits
Glossary
Privacy Policy
Freedom of Information Act (FOIA)
About Us
Career Opportunities